<?xml version="1.0" encoding="UTF-8" standalone="no" ?><gpx xmlns="http://www.topografix.com/GPX/1/1" xmlns:gpxx="http://www.garmin.com/xmlschemas/GpxExtensions/v3" xmlns:wptx1="http://www.garmin.com/xmlschemas/WaypointExtension/v1" xmlns:gpxtpx="http://www.garmin.com/xmlschemas/TrackPointExtension/v1" creator="GuideVTT.com" version="1.1" xmlns:xsi="http://www.w3.org/2001/XMLSchema-instance" xsi:schemaLocation="http://www.topografix.com/GPX/1/1 http://www.topografix.com/GPX/1/1/gpx.xsd http://www.garmin.com/xmlschemas/GpxExtensions/v3 http://www8.garmin.com/xmlschemas/GpxExtensionsv3.xsd http://www.garmin.com/xmlschemas/WaypointExtension/v1 http://www8.garmin.com/xmlschemas/WaypointExtensionv1.xsd http://www.garmin.com/xmlschemas/TrackPointExtension/v1 http://www.garmin.com/xmlschemas/TrackPointExtensionv1.xsd">
<metadata><link href="http://www.garmin.com"><text>Garmin International</text></link><time>2013-06-22T15:13:50Z</time></metadata>
<trk><name>tvh-evolene_les_hauderes.gpx</name><extensions><gpxx:TrackExtension><gpxx:DisplayColor>Cyan</gpxx:DisplayColor></gpxx:TrackExtension></extensions><trkseg>
<trkpt lat="46.11163524" lon="7.49787977"><ele></ele><time>2024-9-11T6:35:14Z</time></trkpt>
<trkpt lat="46.11165712" lon="7.49784063"><ele></ele><time>2024-9-11T6:35:17Z</time></trkpt>
<trkpt lat="46.11123492" lon="7.49817347"><ele></ele><time>2024-9-11T6:35:20Z</time></trkpt>
<trkpt lat="46.11086804" lon="7.49854378"><ele></ele><time>2024-9-11T6:35:23Z</time></trkpt>
<trkpt lat="46.11023446" lon="7.49918542"><ele></ele><time>2024-9-11T6:35:26Z</time></trkpt>
<trkpt lat="46.10975392" lon="7.49951106"><ele></ele><time>2024-9-11T6:35:29Z</time></trkpt>
<trkpt lat="46.10960933" lon="7.49960686"><ele></ele><time>2024-9-11T6:35:32Z</time></trkpt>
<trkpt lat="46.10946491" lon="7.49955825"><ele></ele><time>2024-9-11T6:35:35Z</time></trkpt>
<trkpt lat="46.10960523" lon="7.49946177"><ele></ele><time>2024-9-11T6:35:38Z</time></trkpt>
<trkpt lat="46.11006523" lon="7.49914351"><ele></ele><time>2024-9-11T6:35:41Z</time></trkpt>
<trkpt lat="46.11043160" lon="7.49867739"><ele></ele><time>2024-9-11T6:35:44Z</time></trkpt>
<trkpt lat="46.11038256" lon="7.49734785"><ele></ele><time>2024-9-11T6:35:47Z</time></trkpt>
<trkpt lat="46.11048298" lon="7.49707846"><ele></ele><time>2024-9-11T6:35:50Z</time></trkpt>
<trkpt lat="46.11094834" lon="7.49623206"><ele></ele><time>2024-9-11T6:35:53Z</time></trkpt>
<trkpt lat="46.11116175" lon="7.49588982"><ele></ele><time>2024-9-11T6:35:56Z</time></trkpt>
<trkpt lat="46.11148763" lon="7.49558531"><ele></ele><time>2024-9-11T6:35:59Z</time></trkpt>
<trkpt lat="46.11182165" lon="7.49507016"><ele></ele><time>2024-9-11T6:36:2Z</time></trkpt>
<trkpt lat="46.11202575" lon="7.49468643"><ele></ele><time>2024-9-11T6:36:5Z</time></trkpt>
<trkpt lat="46.11232138" lon="7.49426583"><ele></ele><time>2024-9-11T6:36:8Z</time></trkpt>
<trkpt lat="46.11240244" lon="7.49394522"><ele></ele><time>2024-9-11T6:36:11Z</time></trkpt>
<trkpt lat="46.11224947" lon="7.49382905"><ele></ele><time>2024-9-11T6:36:14Z</time></trkpt>
<trkpt lat="46.11201410" lon="7.49384380"><ele></ele><time>2024-9-11T6:36:17Z</time></trkpt>
<trkpt lat="46.11178536" lon="7.49375277"><ele></ele><time>2024-9-11T6:36:20Z</time></trkpt>
<trkpt lat="46.11149602" lon="7.49358564"><ele></ele><time>2024-9-11T6:36:23Z</time></trkpt>
<trkpt lat="46.11113266" lon="7.49356334"><ele></ele><time>2024-9-11T6:36:26Z</time></trkpt>
<trkpt lat="46.11087936" lon="7.49373919"><ele></ele><time>2024-9-11T6:36:29Z</time></trkpt>
<trkpt lat="46.11051969" lon="7.49397523"><ele></ele><time>2024-9-11T6:36:32Z</time></trkpt>
<trkpt lat="46.10995308" lon="7.49441184"><ele></ele><time>2024-9-11T6:36:35Z</time></trkpt>
<trkpt lat="46.10977354" lon="7.49439625"><ele></ele><time>2024-9-11T6:36:38Z</time></trkpt>
<trkpt lat="46.10972190" lon="7.49429164"><ele></ele><time>2024-9-11T6:36:41Z</time></trkpt>
<trkpt lat="46.10949459" lon="7.49411579"><ele></ele><time>2024-9-11T6:36:44Z</time></trkpt>
<trkpt lat="46.10915386" lon="7.49413205"><ele></ele><time>2024-9-11T6:36:47Z</time></trkpt>
<trkpt lat="46.10877802" lon="7.49426918"><ele></ele><time>2024-9-11T6:36:50Z</time></trkpt>
<trkpt lat="46.10869378" lon="7.49429843"><ele></ele><time>2024-9-11T6:36:53Z</time></trkpt>
<trkpt lat="46.10850619" lon="7.49442659"><ele></ele><time>2024-9-11T6:36:56Z</time></trkpt>
<trkpt lat="46.10810855" lon="7.49462851"><ele></ele><time>2024-9-11T6:36:59Z</time></trkpt>
<trkpt lat="46.10795542" lon="7.49471552"><ele></ele><time>2024-9-11T6:37:2Z</time></trkpt>
<trkpt lat="46.10775601" lon="7.49487871"><ele></ele><time>2024-9-11T6:37:5Z</time></trkpt>
<trkpt lat="46.10753825" lon="7.49505700"><ele></ele><time>2024-9-11T6:37:8Z</time></trkpt>
<trkpt lat="46.10716634" lon="7.49527635"><ele></ele><time>2024-9-11T6:37:11Z</time></trkpt>
<trkpt lat="46.10712452" lon="7.49530661"><ele></ele><time>2024-9-11T6:37:14Z</time></trkpt>
<trkpt lat="46.10675060" lon="7.49561364"><ele></ele><time>2024-9-11T6:37:17Z</time></trkpt>
<trkpt lat="46.10662345" lon="7.49573191"><ele></ele><time>2024-9-11T6:37:20Z</time></trkpt>
<trkpt lat="46.10626185" lon="7.49609048"><ele></ele><time>2024-9-11T6:37:23Z</time></trkpt>
<trkpt lat="46.10595214" lon="7.49638863"><ele></ele><time>2024-9-11T6:37:26Z</time></trkpt>
<trkpt lat="46.10560404" lon="7.49680035"><ele></ele><time>2024-9-11T6:37:29Z</time></trkpt>
<trkpt lat="46.10549608" lon="7.49695675"><ele></ele><time>2024-9-11T6:37:32Z</time></trkpt>
<trkpt lat="46.10532450" lon="7.49709304"><ele></ele><time>2024-9-11T6:37:35Z</time></trkpt>
<trkpt lat="46.10488177" lon="7.49737820"><ele></ele><time>2024-9-11T6:37:38Z</time></trkpt>
<trkpt lat="46.10470014" lon="7.49752061"><ele></ele><time>2024-9-11T6:37:41Z</time></trkpt>
<trkpt lat="46.10451624" lon="7.49771968"><ele></ele><time>2024-9-11T6:37:44Z</time></trkpt>
<trkpt lat="46.10444617" lon="7.49779989"><ele></ele><time>2024-9-11T6:37:47Z</time></trkpt>
<trkpt lat="46.10428582" lon="7.49804271"><ele></ele><time>2024-9-11T6:37:50Z</time></trkpt>
<trkpt lat="46.10407258" lon="7.49823181"><ele></ele><time>2024-9-11T6:37:53Z</time></trkpt>
<trkpt lat="46.10383127" lon="7.49835921"><ele></ele><time>2024-9-11T6:37:56Z</time></trkpt>
<trkpt lat="46.10365148" lon="7.49849006"><ele></ele><time>2024-9-11T6:37:59Z</time></trkpt>
<trkpt lat="46.10342533" lon="7.49854781"><ele></ele><time>2024-9-11T6:38:2Z</time></trkpt>
<trkpt lat="46.10343522" lon="7.49851411"><ele></ele><time>2024-9-11T6:38:5Z</time></trkpt>
<trkpt lat="46.10340823" lon="7.49845485"><ele></ele><time>2024-9-11T6:38:8Z</time></trkpt>
<trkpt lat="46.10332953" lon="7.49849307"><ele></ele><time>2024-9-11T6:38:11Z</time></trkpt>
<trkpt lat="46.10294212" lon="7.49882382"><ele></ele><time>2024-9-11T6:38:14Z</time></trkpt>
<trkpt lat="46.10282695" lon="7.49895919"><ele></ele><time>2024-9-11T6:38:17Z</time></trkpt>
<trkpt lat="46.10182674" lon="7.49985555"><ele></ele><time>2024-9-11T6:38:20Z</time></trkpt>
<trkpt lat="46.10108335" lon="7.50065804"><ele></ele><time>2024-9-11T6:38:23Z</time></trkpt>
<trkpt lat="46.10078755" lon="7.50089088"><ele></ele><time>2024-9-11T6:38:26Z</time></trkpt>
<trkpt lat="46.10028287" lon="7.50127285"><ele></ele><time>2024-9-11T6:38:29Z</time></trkpt>
<trkpt lat="46.09977786" lon="7.50168448"><ele></ele><time>2024-9-11T6:38:32Z</time></trkpt>
<trkpt lat="46.09958709" lon="7.50196796"><ele></ele><time>2024-9-11T6:38:35Z</time></trkpt>
<trkpt lat="46.09915693" lon="7.50232637"><ele></ele><time>2024-9-11T6:38:38Z</time></trkpt>
<trkpt lat="46.09874907" lon="7.50253935"><ele></ele><time>2024-9-11T6:38:41Z</time></trkpt>
<trkpt lat="46.09861840" lon="7.50264505"><ele></ele><time>2024-9-11T6:38:44Z</time></trkpt>
<trkpt lat="46.09848001" lon="7.50273289"><ele></ele><time>2024-9-11T6:38:47Z</time></trkpt>
<trkpt lat="46.09824146" lon="7.50301184"><ele></ele><time>2024-9-11T6:38:50Z</time></trkpt>
<trkpt lat="46.09762564" lon="7.50398532"><ele></ele><time>2024-9-11T6:38:53Z</time></trkpt>
<trkpt lat="46.09728685" lon="7.50412663"><ele></ele><time>2024-9-11T6:38:56Z</time></trkpt>
<trkpt lat="46.09688736" lon="7.50419394"><ele></ele><time>2024-9-11T6:38:59Z</time></trkpt>
<trkpt lat="46.09677890" lon="7.50422596"><ele></ele><time>2024-9-11T6:39:2Z</time></trkpt>
<trkpt lat="46.09671160" lon="7.50425940"><ele></ele><time>2024-9-11T6:39:5Z</time></trkpt>
<trkpt lat="46.09654882" lon="7.50438832"><ele></ele><time>2024-9-11T6:39:8Z</time></trkpt>
<trkpt lat="46.09606728" lon="7.50491546"><ele></ele><time>2024-9-11T6:39:11Z</time></trkpt>
<trkpt lat="46.09594951" lon="7.50503909"><ele></ele><time>2024-9-11T6:39:14Z</time></trkpt>
<trkpt lat="46.09577995" lon="7.50513372"><ele></ele><time>2024-9-11T6:39:17Z</time></trkpt>
<trkpt lat="46.09505441" lon="7.50539783"><ele></ele><time>2024-9-11T6:39:20Z</time></trkpt>
<trkpt lat="46.09473238" lon="7.50551736"><ele></ele><time>2024-9-11T6:39:23Z</time></trkpt>
<trkpt lat="46.09463934" lon="7.50554267"><ele></ele><time>2024-9-11T6:39:26Z</time></trkpt>
<trkpt lat="46.09403199" lon="7.50551317"><ele></ele><time>2024-9-11T6:39:29Z</time></trkpt>
<trkpt lat="46.09379629" lon="7.50545944"><ele></ele><time>2024-9-11T6:39:32Z</time></trkpt>
<trkpt lat="46.09331902" lon="7.50532147"><ele></ele><time>2024-9-11T6:39:35Z</time></trkpt>
<trkpt lat="46.09294997" lon="7.50534771"><ele></ele><time>2024-9-11T6:39:38Z</time></trkpt>
<trkpt lat="46.09253439" lon="7.50545324"><ele></ele><time>2024-9-11T6:39:41Z</time></trkpt>
<trkpt lat="46.09217422" lon="7.50540228"><ele></ele><time>2024-9-11T6:39:44Z</time></trkpt>
<trkpt lat="46.09171514" lon="7.50529314"><ele></ele><time>2024-9-11T6:39:47Z</time></trkpt>
<trkpt lat="46.09156184" lon="7.50532634"><ele></ele><time>2024-9-11T6:39:50Z</time></trkpt>
<trkpt lat="46.09153829" lon="7.50556891"><ele></ele><time>2024-9-11T6:39:53Z</time></trkpt>
<trkpt lat="46.09105792" lon="7.50578851"><ele></ele><time>2024-9-11T6:39:56Z</time></trkpt>
<trkpt lat="46.09060454" lon="7.50595288"><ele></ele><time>2024-9-11T6:39:59Z</time></trkpt>
<trkpt lat="46.09048158" lon="7.50603134"><ele></ele><time>2024-9-11T6:40:2Z</time></trkpt>
<trkpt lat="46.09045132" lon="7.50698185"><ele></ele><time>2024-9-11T6:40:5Z</time></trkpt>
<trkpt lat="46.09043774" lon="7.50706910"><ele></ele><time>2024-9-11T6:40:8Z</time></trkpt>
<trkpt lat="46.09026080" lon="7.50719609"><ele></ele><time>2024-9-11T6:40:11Z</time></trkpt>
<trkpt lat="46.09024077" lon="7.50723884"><ele></ele><time>2024-9-11T6:40:14Z</time></trkpt>
<trkpt lat="46.09026918" lon="7.50740740"><ele></ele><time>2024-9-11T6:40:17Z</time></trkpt>
<trkpt lat="46.09035987" lon="7.50746364"><ele></ele><time>2024-9-11T6:40:20Z</time></trkpt>
<trkpt lat="46.09041536" lon="7.50750488"><ele></ele><time>2024-9-11T6:40:23Z</time></trkpt>
<trkpt lat="46.09048803" lon="7.50788282"><ele></ele><time>2024-9-11T6:40:26Z</time></trkpt>
<trkpt lat="46.09056129" lon="7.50834483"><ele></ele><time>2024-9-11T6:40:29Z</time></trkpt>
<trkpt lat="46.09056439" lon="7.50847097"><ele></ele><time>2024-9-11T6:40:32Z</time></trkpt>
<trkpt lat="46.09046917" lon="7.50855253"><ele></ele><time>2024-9-11T6:40:35Z</time></trkpt>
<trkpt lat="46.09001580" lon="7.50872101"><ele></ele><time>2024-9-11T6:40:38Z</time></trkpt>
<trkpt lat="46.08964372" lon="7.50883760"><ele></ele><time>2024-9-11T6:40:41Z</time></trkpt>
<trkpt lat="46.08951691" lon="7.50888605"><ele></ele><time>2024-9-11T6:40:44Z</time></trkpt>
<trkpt lat="46.08951112" lon="7.50889141"><ele></ele><time>2024-9-11T6:40:47Z</time></trkpt>
<trkpt lat="46.08998143" lon="7.50936449"><ele></ele><time>2024-9-11T6:40:50Z</time></trkpt>
<trkpt lat="46.09039491" lon="7.50962139"><ele></ele><time>2024-9-11T6:40:53Z</time></trkpt>
<trkpt lat="46.09064452" lon="7.50976698"><ele></ele><time>2024-9-11T6:40:56Z</time></trkpt>
<trkpt lat="46.09090118" lon="7.50994250"><ele></ele><time>2024-9-11T6:40:59Z</time></trkpt>
<trkpt lat="46.09108617" lon="7.51023260"><ele></ele><time>2024-9-11T6:41:2Z</time></trkpt>
<trkpt lat="46.09120301" lon="7.51030058"><ele></ele><time>2024-9-11T6:41:5Z</time></trkpt>
<trkpt lat="46.09134709" lon="7.51027266"><ele></ele><time>2024-9-11T6:41:8Z</time></trkpt>
<trkpt lat="46.09151180" lon="7.51022908"><ele></ele><time>2024-9-11T6:41:11Z</time></trkpt>
<trkpt lat="46.09159386" lon="7.51023813"><ele></ele><time>2024-9-11T6:41:14Z</time></trkpt>
<trkpt lat="46.09163552" lon="7.51014593"><ele></ele><time>2024-9-11T6:41:17Z</time></trkpt>
<trkpt lat="46.09165228" lon="7.51008466"><ele></ele><time>2024-9-11T6:41:20Z</time></trkpt>
<trkpt lat="46.09176720" lon="7.51005080"><ele></ele><time>2024-9-11T6:41:23Z</time></trkpt>
<trkpt lat="46.09198638" lon="7.51009782"><ele></ele><time>2024-9-11T6:41:26Z</time></trkpt>
<trkpt lat="46.09214874" lon="7.51009354"><ele></ele><time>2024-9-11T6:41:29Z</time></trkpt>
<trkpt lat="46.09240045" lon="7.51010452"><ele></ele><time>2024-9-11T6:41:32Z</time></trkpt>
<trkpt lat="46.09260463" lon="7.51014794"><ele></ele><time>2024-9-11T6:41:35Z</time></trkpt>
<trkpt lat="46.09284058" lon="7.51024702"><ele></ele><time>2024-9-11T6:41:38Z</time></trkpt>
<trkpt lat="46.09307662" lon="7.51020385"><ele></ele><time>2024-9-11T6:41:41Z</time></trkpt>
<trkpt lat="46.09330343" lon="7.51005658"><ele></ele><time>2024-9-11T6:41:44Z</time></trkpt>
<trkpt lat="46.09348549" lon="7.50988659"><ele></ele><time>2024-9-11T6:41:47Z</time></trkpt>
<trkpt lat="46.09366528" lon="7.50968006"><ele></ele><time>2024-9-11T6:41:50Z</time></trkpt>
<trkpt lat="46.09381875" lon="7.50945417"><ele></ele><time>2024-9-11T6:41:53Z</time></trkpt>
<trkpt lat="46.09400743" lon="7.50919274"><ele></ele><time>2024-9-11T6:41:56Z</time></trkpt>
<trkpt lat="46.09409384" lon="7.50913398"><ele></ele><time>2024-9-11T6:41:59Z</time></trkpt>
<trkpt lat="46.09421555" lon="7.50927396"><ele></ele><time>2024-9-11T6:42:2Z</time></trkpt>
<trkpt lat="46.09423013" lon="7.50929316"><ele></ele><time>2024-9-11T6:42:5Z</time></trkpt>
<trkpt lat="46.09436257" lon="7.50923985"><ele></ele><time>2024-9-11T6:42:8Z</time></trkpt>
<trkpt lat="46.09437606" lon="7.50921822"><ele></ele><time>2024-9-11T6:42:11Z</time></trkpt>
<trkpt lat="46.09444362" lon="7.50897129"><ele></ele><time>2024-9-11T6:42:14Z</time></trkpt>
<trkpt lat="46.09452501" lon="7.50870374"><ele></ele><time>2024-9-11T6:42:17Z</time></trkpt>
<trkpt lat="46.09463783" lon="7.50859134"><ele></ele><time>2024-9-11T6:42:20Z</time></trkpt>
<trkpt lat="46.09462677" lon="7.50858924"><ele></ele><time>2024-9-11T6:42:23Z</time></trkpt>
<trkpt lat="46.09469709" lon="7.50856938"><ele></ele><time>2024-9-11T6:42:26Z</time></trkpt>
<trkpt lat="46.09486213" lon="7.50855588"><ele></ele><time>2024-9-11T6:42:29Z</time></trkpt>
<trkpt lat="46.09506531" lon="7.50848732"><ele></ele><time>2024-9-11T6:42:32Z</time></trkpt>
<trkpt lat="46.09525457" lon="7.50833527"><ele></ele><time>2024-9-11T6:42:35Z</time></trkpt>
<trkpt lat="46.09540519" lon="7.50809220"><ele></ele><time>2024-9-11T6:42:38Z</time></trkpt>
<trkpt lat="46.09550913" lon="7.50801936"><ele></ele><time>2024-9-11T6:42:41Z</time></trkpt>
<trkpt lat="46.09551525" lon="7.50820678"><ele></ele><time>2024-9-11T6:42:44Z</time></trkpt>
<trkpt lat="46.09541567" lon="7.50840920"><ele></ele><time>2024-9-11T6:42:47Z</time></trkpt>
<trkpt lat="46.09528357" lon="7.50863819"><ele></ele><time>2024-9-11T6:42:50Z</time></trkpt>
<trkpt lat="46.09516606" lon="7.50881815"><ele></ele><time>2024-9-11T6:42:53Z</time></trkpt>
<trkpt lat="46.09503547" lon="7.50899275"><ele></ele><time>2024-9-11T6:42:56Z</time></trkpt>
<trkpt lat="46.09491770" lon="7.50919500"><ele></ele><time>2024-9-11T6:42:59Z</time></trkpt>
<trkpt lat="46.09484654" lon="7.50940757"><ele></ele><time>2024-9-11T6:43:2Z</time></trkpt>
<trkpt lat="46.09491804" lon="7.50960203"><ele></ele><time>2024-9-11T6:43:5Z</time></trkpt>
<trkpt lat="46.09497554" lon="7.50990822"><ele></ele><time>2024-9-11T6:43:8Z</time></trkpt>
<trkpt lat="46.09490085" lon="7.51002163"><ele></ele><time>2024-9-11T6:43:11Z</time></trkpt>
<trkpt lat="46.09487914" lon="7.51004585"><ele></ele><time>2024-9-11T6:43:14Z</time></trkpt>
<trkpt lat="46.09471947" lon="7.51013755"><ele></ele><time>2024-9-11T6:43:17Z</time></trkpt>
<trkpt lat="46.09455066" lon="7.51030678"><ele></ele><time>2024-9-11T6:43:20Z</time></trkpt>
<trkpt lat="46.09450104" lon="7.51056486"><ele></ele><time>2024-9-11T6:43:23Z</time></trkpt>
<trkpt lat="46.09446919" lon="7.51087817"><ele></ele><time>2024-9-11T6:43:26Z</time></trkpt>
<trkpt lat="46.09444370" lon="7.51113349"><ele></ele><time>2024-9-11T6:43:29Z</time></trkpt>
<trkpt lat="46.09440389" lon="7.51145208"><ele></ele><time>2024-9-11T6:43:32Z</time></trkpt>
<trkpt lat="46.09434295" lon="7.51172156"><ele></ele><time>2024-9-11T6:43:35Z</time></trkpt>
<trkpt lat="46.09396342" lon="7.51184788"><ele></ele><time>2024-9-11T6:43:38Z</time></trkpt>
<trkpt lat="46.09369059" lon="7.51177546"><ele></ele><time>2024-9-11T6:43:41Z</time></trkpt>
<trkpt lat="46.09347006" lon="7.51180278"><ele></ele><time>2024-9-11T6:43:44Z</time></trkpt>
<trkpt lat="46.09329647" lon="7.51192683"><ele></ele><time>2024-9-11T6:43:47Z</time></trkpt>
<trkpt lat="46.09276230" lon="7.51224652"><ele></ele><time>2024-9-11T6:43:50Z</time></trkpt>
<trkpt lat="46.09247966" lon="7.51249295"><ele></ele><time>2024-9-11T6:43:53Z</time></trkpt>
<trkpt lat="46.09225100" lon="7.51282437"><ele></ele><time>2024-9-11T6:43:56Z</time></trkpt>
<trkpt lat="46.09194154" lon="7.51285898"><ele></ele><time>2024-9-11T6:43:59Z</time></trkpt>
<trkpt lat="46.09103252" lon="7.51293752"><ele></ele><time>2024-9-11T6:44:2Z</time></trkpt>
<trkpt lat="46.09060337" lon="7.51292587"><ele></ele><time>2024-9-11T6:44:5Z</time></trkpt>
<trkpt lat="46.09023004" lon="7.51295286"><ele></ele><time>2024-9-11T6:44:8Z</time></trkpt>
<trkpt lat="46.09001622" lon="7.51306216"><ele></ele><time>2024-9-11T6:44:11Z</time></trkpt>
<trkpt lat="46.09021671" lon="7.51316870"><ele></ele><time>2024-9-11T6:44:14Z</time></trkpt>
<trkpt lat="46.09034806" lon="7.51325713"><ele></ele><time>2024-9-11T6:44:17Z</time></trkpt>
<trkpt lat="46.09038536" lon="7.51329183"><ele></ele><time>2024-9-11T6:44:20Z</time></trkpt>
<trkpt lat="46.09045945" lon="7.51332619"><ele></ele><time>2024-9-11T6:44:23Z</time></trkpt>
<trkpt lat="46.09051921" lon="7.51330733"><ele></ele><time>2024-9-11T6:44:26Z</time></trkpt>
<trkpt lat="46.09065332" lon="7.51329065"><ele></ele><time>2024-9-11T6:44:29Z</time></trkpt>
<trkpt lat="46.09071904" lon="7.51329409"><ele></ele><time>2024-9-11T6:44:32Z</time></trkpt>
<trkpt lat="46.09085826" lon="7.51334170"><ele></ele><time>2024-9-11T6:44:35Z</time></trkpt>
<trkpt lat="46.09114945" lon="7.51342979"><ele></ele><time>2024-9-11T6:44:38Z</time></trkpt>
<trkpt lat="46.09158380" lon="7.51352392"><ele></ele><time>2024-9-11T6:44:41Z</time></trkpt>
<trkpt lat="46.09196207" lon="7.51364437"><ele></ele><time>2024-9-11T6:44:44Z</time></trkpt>
<trkpt lat="46.09227581" lon="7.51373070"><ele></ele><time>2024-9-11T6:44:47Z</time></trkpt>
<trkpt lat="46.09255367" lon="7.51371838"><ele></ele><time>2024-9-11T6:44:50Z</time></trkpt>
<trkpt lat="46.09263070" lon="7.51373908"><ele></ele><time>2024-9-11T6:44:53Z</time></trkpt>
<trkpt lat="46.09278040" lon="7.51371478"><ele></ele><time>2024-9-11T6:44:56Z</time></trkpt>
<trkpt lat="46.09294611" lon="7.51363808"><ele></ele><time>2024-9-11T6:44:59Z</time></trkpt>
<trkpt lat="46.09304787" lon="7.51355125"><ele></ele><time>2024-9-11T6:45:2Z</time></trkpt>
<trkpt lat="46.09317083" lon="7.51343834"><ele></ele><time>2024-9-11T6:45:5Z</time></trkpt>
<trkpt lat="46.09332883" lon="7.51341554"><ele></ele><time>2024-9-11T6:45:8Z</time></trkpt>
<trkpt lat="46.09353460" lon="7.51347229"><ele></ele><time>2024-9-11T6:45:11Z</time></trkpt>
<trkpt lat="46.09369453" lon="7.51352241"><ele></ele><time>2024-9-11T6:45:14Z</time></trkpt>
<trkpt lat="46.09381883" lon="7.51356700"><ele></ele><time>2024-9-11T6:45:17Z</time></trkpt>
<trkpt lat="46.09398480" lon="7.51358612"><ele></ele><time>2024-9-11T6:45:20Z</time></trkpt>
<trkpt lat="46.09409250" lon="7.51365258"><ele></ele><time>2024-9-11T6:45:23Z</time></trkpt>
<trkpt lat="46.09419619" lon="7.51385216"><ele></ele><time>2024-9-11T6:45:26Z</time></trkpt>
<trkpt lat="46.09431219" lon="7.51405056"><ele></ele><time>2024-9-11T6:45:29Z</time></trkpt>
<trkpt lat="46.09435142" lon="7.51411099"><ele></ele><time>2024-9-11T6:45:32Z</time></trkpt>
<trkpt lat="46.09436290" lon="7.51412599"><ele></ele><time>2024-9-11T6:45:35Z</time></trkpt>
<trkpt lat="46.09436223" lon="7.51413580"><ele></ele><time>2024-9-11T6:45:38Z</time></trkpt>
<trkpt lat="46.09436978" lon="7.51415097"><ele></ele><time>2024-9-11T6:45:41Z</time></trkpt>
<trkpt lat="46.09443038" lon="7.51425038"><ele></ele><time>2024-9-11T6:45:44Z</time></trkpt>
<trkpt lat="46.09460858" lon="7.51430763"><ele></ele><time>2024-9-11T6:45:47Z</time></trkpt>
<trkpt lat="46.09496162" lon="7.51437150"><ele></ele><time>2024-9-11T6:45:50Z</time></trkpt>
<trkpt lat="46.09526086" lon="7.51435247"><ele></ele><time>2024-9-11T6:45:53Z</time></trkpt>
<trkpt lat="46.09558951" lon="7.51420587"><ele></ele><time>2024-9-11T6:45:56Z</time></trkpt>
<trkpt lat="46.09584793" lon="7.51399825"><ele></ele><time>2024-9-11T6:45:59Z</time></trkpt>
<trkpt lat="46.09598941" lon="7.51397688"><ele></ele><time>2024-9-11T6:46:2Z</time></trkpt>
<trkpt lat="46.09605907" lon="7.51400990"><ele></ele><time>2024-9-11T6:46:5Z</time></trkpt>
<trkpt lat="46.09628177" lon="7.51414762"><ele></ele><time>2024-9-11T6:46:8Z</time></trkpt>
<trkpt lat="46.09646844" lon="7.51427351"><ele></ele><time>2024-9-11T6:46:11Z</time></trkpt>
<trkpt lat="46.09667128" lon="7.51430570"><ele></ele><time>2024-9-11T6:46:14Z</time></trkpt>
<trkpt lat="46.09689273" lon="7.51423236"><ele></ele><time>2024-9-11T6:46:17Z</time></trkpt>
<trkpt lat="46.09710747" lon="7.51421819"><ele></ele><time>2024-9-11T6:46:20Z</time></trkpt>
<trkpt lat="46.09728349" lon="7.51413052"><ele></ele><time>2024-9-11T6:46:23Z</time></trkpt>
<trkpt lat="46.09745013" lon="7.51396607"><ele></ele><time>2024-9-11T6:46:26Z</time></trkpt>
<trkpt lat="46.09758885" lon="7.51379943"><ele></ele><time>2024-9-11T6:46:29Z</time></trkpt>
<trkpt lat="46.09774601" lon="7.51349509"><ele></ele><time>2024-9-11T6:46:32Z</time></trkpt>
<trkpt lat="46.09788280" lon="7.51326375"><ele></ele><time>2024-9-11T6:46:35Z</time></trkpt>
<trkpt lat="46.09804851" lon="7.51308898"><ele></ele><time>2024-9-11T6:46:38Z</time></trkpt>
<trkpt lat="46.09816032" lon="7.51300567"><ele></ele><time>2024-9-11T6:46:41Z</time></trkpt>
<trkpt lat="46.09840893" lon="7.51296971"><ele></ele><time>2024-9-11T6:46:44Z</time></trkpt>
<trkpt lat="46.09864974" lon="7.51295823"><ele></ele><time>2024-9-11T6:46:47Z</time></trkpt>
<trkpt lat="46.09866961" lon="7.51295764"><ele></ele><time>2024-9-11T6:46:50Z</time></trkpt>
<trkpt lat="46.09869048" lon="7.51312561"><ele></ele><time>2024-9-11T6:46:53Z</time></trkpt>
<trkpt lat="46.09870104" lon="7.51345100"><ele></ele><time>2024-9-11T6:46:56Z</time></trkpt>
<trkpt lat="46.09867992" lon="7.51352577"><ele></ele><time>2024-9-11T6:46:59Z</time></trkpt>
<trkpt lat="46.09857657" lon="7.51368904"><ele></ele><time>2024-9-11T6:47:2Z</time></trkpt>
<trkpt lat="46.09854246" lon="7.51386674"><ele></ele><time>2024-9-11T6:47:5Z</time></trkpt>
<trkpt lat="46.09846828" lon="7.51415667"><ele></ele><time>2024-9-11T6:47:8Z</time></trkpt>
<trkpt lat="46.09847951" lon="7.51424787"><ele></ele><time>2024-9-11T6:47:11Z</time></trkpt>
<trkpt lat="46.09858026" lon="7.51422222"><ele></ele><time>2024-9-11T6:47:14Z</time></trkpt>
<trkpt lat="46.09870926" lon="7.51410814"><ele></ele><time>2024-9-11T6:47:17Z</time></trkpt>
<trkpt lat="46.09869375" lon="7.51445624"><ele></ele><time>2024-9-11T6:47:20Z</time></trkpt>
<trkpt lat="46.09867330" lon="7.51461784"><ele></ele><time>2024-9-11T6:47:23Z</time></trkpt>
<trkpt lat="46.09860809" lon="7.51486980"><ele></ele><time>2024-9-11T6:47:26Z</time></trkpt>
<trkpt lat="46.09860096" lon="7.51489369"><ele></ele><time>2024-9-11T6:47:29Z</time></trkpt>
<trkpt lat="46.09860172" lon="7.51490434"><ele></ele><time>2024-9-11T6:47:32Z</time></trkpt>
<trkpt lat="46.09860800" lon="7.51491406"><ele></ele><time>2024-9-11T6:47:35Z</time></trkpt>
<trkpt lat="46.09858512" lon="7.51496351"><ele></ele><time>2024-9-11T6:47:38Z</time></trkpt>
<trkpt lat="46.09861957" lon="7.51503300"><ele></ele><time>2024-9-11T6:47:41Z</time></trkpt>
<trkpt lat="46.09864136" lon="7.51502797"><ele></ele><time>2024-9-11T6:47:44Z</time></trkpt>
<trkpt lat="46.09857095" lon="7.51500165"><ele></ele><time>2024-9-11T6:47:47Z</time></trkpt>
<trkpt lat="46.09841153" lon="7.51519661"><ele></ele><time>2024-9-11T6:47:50Z</time></trkpt>
<trkpt lat="46.09831329" lon="7.51535771"><ele></ele><time>2024-9-11T6:47:53Z</time></trkpt>
<trkpt lat="46.09803300" lon="7.51560104"><ele></ele><time>2024-9-11T6:47:56Z</time></trkpt>
<trkpt lat="46.09785531" lon="7.51589550"><ele></ele><time>2024-9-11T6:47:59Z</time></trkpt>
<trkpt lat="46.09780602" lon="7.51597839"><ele></ele><time>2024-9-11T6:48:2Z</time></trkpt>
<trkpt lat="46.09775682" lon="7.51614033"><ele></ele><time>2024-9-11T6:48:5Z</time></trkpt>
<trkpt lat="46.09770007" lon="7.51636740"><ele></ele><time>2024-9-11T6:48:8Z</time></trkpt>
<trkpt lat="46.09757300" lon="7.51647636"><ele></ele><time>2024-9-11T6:48:11Z</time></trkpt>
<trkpt lat="46.09743403" lon="7.51663042"><ele></ele><time>2024-9-11T6:48:14Z</time></trkpt>
<trkpt lat="46.09731526" lon="7.51676135"><ele></ele><time>2024-9-11T6:48:17Z</time></trkpt>
<trkpt lat="46.09715550" lon="7.51694776"><ele></ele><time>2024-9-11T6:48:20Z</time></trkpt>
<trkpt lat="46.09700848" lon="7.51715530"><ele></ele><time>2024-9-11T6:48:23Z</time></trkpt>
<trkpt lat="46.09657497" lon="7.51753299"><ele></ele><time>2024-9-11T6:48:26Z</time></trkpt>
<trkpt lat="46.09587559" lon="7.51806071"><ele></ele><time>2024-9-11T6:48:29Z</time></trkpt>
<trkpt lat="46.09550552" lon="7.51813849"><ele></ele><time>2024-9-11T6:48:32Z</time></trkpt>
<trkpt lat="46.09546915" lon="7.51792626"><ele></ele><time>2024-9-11T6:48:35Z</time></trkpt>
<trkpt lat="46.09513002" lon="7.51781722"><ele></ele><time>2024-9-11T6:48:38Z</time></trkpt>
<trkpt lat="46.09516614" lon="7.51788913"><ele></ele><time>2024-9-11T6:48:41Z</time></trkpt>
<trkpt lat="46.09506506" lon="7.51808234"><ele></ele><time>2024-9-11T6:48:44Z</time></trkpt>
<trkpt lat="46.09503362" lon="7.51807597"><ele></ele><time>2024-9-11T6:48:47Z</time></trkpt>
<trkpt lat="46.09460187" lon="7.51780523"><ele></ele><time>2024-9-11T6:48:50Z</time></trkpt>
<trkpt lat="46.09368288" lon="7.51798133"><ele></ele><time>2024-9-11T6:48:53Z</time></trkpt>
<trkpt lat="46.09354215" lon="7.51816381"><ele></ele><time>2024-9-11T6:48:56Z</time></trkpt>
<trkpt lat="46.09344190" lon="7.51828233"><ele></ele><time>2024-9-11T6:48:59Z</time></trkpt>
<trkpt lat="46.09337937" lon="7.51834234"><ele></ele><time>2024-9-11T6:49:2Z</time></trkpt>
<trkpt lat="46.09327594" lon="7.51854150"><ele></ele><time>2024-9-11T6:49:5Z</time></trkpt>
<trkpt lat="46.09313571" lon="7.51865063"><ele></ele><time>2024-9-11T6:49:8Z</time></trkpt>
<trkpt lat="46.09295592" lon="7.51872347"><ele></ele><time>2024-9-11T6:49:11Z</time></trkpt>
<trkpt lat="46.09279213" lon="7.51884484"><ele></ele><time>2024-9-11T6:49:14Z</time></trkpt>
<trkpt lat="46.09262751" lon="7.51898808"><ele></ele><time>2024-9-11T6:49:17Z</time></trkpt>
<trkpt lat="46.09249651" lon="7.51912354"><ele></ele><time>2024-9-11T6:49:20Z</time></trkpt>
<trkpt lat="46.09235376" lon="7.51926787"><ele></ele><time>2024-9-11T6:49:23Z</time></trkpt>
<trkpt lat="46.09221328" lon="7.51942176"><ele></ele><time>2024-9-11T6:49:26Z</time></trkpt>
<trkpt lat="46.09205503" lon="7.51954925"><ele></ele><time>2024-9-11T6:49:29Z</time></trkpt>
<trkpt lat="46.09111710" lon="7.52027588"><ele></ele><time>2024-9-11T6:49:32Z</time></trkpt>
<trkpt lat="46.09113989" lon="7.52026507"><ele></ele><time>2024-9-11T6:49:35Z</time></trkpt>
<trkpt lat="46.08996651" lon="7.51968043"><ele></ele><time>2024-9-11T6:49:38Z</time></trkpt>
<trkpt lat="46.08978186" lon="7.51969258"><ele></ele><time>2024-9-11T6:49:41Z</time></trkpt>
<trkpt lat="46.08961950" lon="7.51967909"><ele></ele><time>2024-9-11T6:49:44Z</time></trkpt>
<trkpt lat="46.08958052" lon="7.51965704"><ele></ele><time>2024-9-11T6:49:47Z</time></trkpt>
<trkpt lat="46.08869405" lon="7.51965520"><ele></ele><time>2024-9-11T6:49:50Z</time></trkpt>
<trkpt lat="46.08846623" lon="7.51977037"><ele></ele><time>2024-9-11T6:49:53Z</time></trkpt>
<trkpt lat="46.08832274" lon="7.52006021"><ele></ele><time>2024-9-11T6:49:56Z</time></trkpt>
<trkpt lat="46.08803356" lon="7.51971169"><ele></ele><time>2024-9-11T6:49:59Z</time></trkpt>
<trkpt lat="46.08789719" lon="7.51976433"><ele></ele><time>2024-9-11T6:50:2Z</time></trkpt>
<trkpt lat="46.08776777" lon="7.51963332"><ele></ele><time>2024-9-11T6:50:5Z</time></trkpt>
<trkpt lat="46.08774916" lon="7.51958747"><ele></ele><time>2024-9-11T6:50:8Z</time></trkpt>
<trkpt lat="46.08766903" lon="7.51932722"><ele></ele><time>2024-9-11T6:50:11Z</time></trkpt>
<trkpt lat="46.08759410" lon="7.51900275"><ele></ele><time>2024-9-11T6:50:14Z</time></trkpt>
<trkpt lat="46.08755864" lon="7.51876211"><ele></ele><time>2024-9-11T6:50:17Z</time></trkpt>
<trkpt lat="46.08734256" lon="7.51851602"><ele></ele><time>2024-9-11T6:50:20Z</time></trkpt>
<trkpt lat="46.08725388" lon="7.51863269"><ele></ele><time>2024-9-11T6:50:23Z</time></trkpt>
<trkpt lat="46.08701080" lon="7.51918565"><ele></ele><time>2024-9-11T6:50:26Z</time></trkpt>
<trkpt lat="46.08683118" lon="7.51953861"><ele></ele><time>2024-9-11T6:50:29Z</time></trkpt>
<trkpt lat="46.08650051" lon="7.51992443"><ele></ele><time>2024-9-11T6:50:32Z</time></trkpt>
<trkpt lat="46.08626875" lon="7.52017119"><ele></ele><time>2024-9-11T6:50:35Z</time></trkpt>
<trkpt lat="46.08615685" lon="7.52025719"><ele></ele><time>2024-9-11T6:50:38Z</time></trkpt>
<trkpt lat="46.08588335" lon="7.52024772"><ele></ele><time>2024-9-11T6:50:41Z</time></trkpt>
<trkpt lat="46.08551136" lon="7.52014680"><ele></ele><time>2024-9-11T6:50:44Z</time></trkpt>
<trkpt lat="46.08528011" lon="7.52023062"><ele></ele><time>2024-9-11T6:50:47Z</time></trkpt>
<trkpt lat="46.08477451" lon="7.52062993"><ele></ele><time>2024-9-11T6:50:50Z</time></trkpt>
<trkpt lat="46.08443244" lon="7.52105515"><ele></ele><time>2024-9-11T6:50:53Z</time></trkpt>
<trkpt lat="46.08420253" lon="7.52134239"><ele></ele><time>2024-9-11T6:50:56Z</time></trkpt>
<trkpt lat="46.08388779" lon="7.52153618"><ele></ele><time>2024-9-11T6:50:59Z</time></trkpt>
<trkpt lat="46.08322905" lon="7.52178479"><ele></ele><time>2024-9-11T6:51:2Z</time></trkpt>
<trkpt lat="46.08266571" lon="7.52162126"><ele></ele><time>2024-9-11T6:51:5Z</time></trkpt>
<trkpt lat="46.08232817" lon="7.52185218"><ele></ele><time>2024-9-11T6:51:8Z</time></trkpt>
<trkpt lat="46.08206782" lon="7.52222819"><ele></ele><time>2024-9-11T6:51:11Z</time></trkpt>
<trkpt lat="46.08183422" lon="7.52246037"><ele></ele><time>2024-9-11T6:51:14Z</time></trkpt>
<trkpt lat="46.08116266" lon="7.52290914"><ele></ele><time>2024-9-11T6:51:17Z</time></trkpt>
<trkpt lat="46.08078355" lon="7.52339822"><ele></ele><time>2024-9-11T6:51:20Z</time></trkpt>
<trkpt lat="46.08065656" lon="7.52368212"><ele></ele><time>2024-9-11T6:51:23Z</time></trkpt>
<trkpt lat="46.08039413" lon="7.52403047"><ele></ele><time>2024-9-11T6:51:26Z</time></trkpt>
<trkpt lat="46.08015181" lon="7.52445283"><ele></ele><time>2024-9-11T6:51:29Z</time></trkpt>
<trkpt lat="46.07997428" lon="7.52494510"><ele></ele><time>2024-9-11T6:51:32Z</time></trkpt>
<trkpt lat="46.07968485" lon="7.52552186"><ele></ele><time>2024-9-11T6:51:35Z</time></trkpt>
<trkpt lat="46.07951813" lon="7.52577701"><ele></ele><time>2024-9-11T6:51:38Z</time></trkpt>
<trkpt lat="46.07924874" lon="7.52605529"><ele></ele><time>2024-9-11T6:51:41Z</time></trkpt>
<trkpt lat="46.07902679" lon="7.52620440"><ele></ele><time>2024-9-11T6:51:44Z</time></trkpt>
<trkpt lat="46.07888161" lon="7.52623114"><ele></ele><time>2024-9-11T6:51:47Z</time></trkpt>
<trkpt lat="46.07879251" lon="7.52623416"><ele></ele><time>2024-9-11T6:51:50Z</time></trkpt>
<trkpt lat="46.07863443" lon="7.52641294"><ele></ele><time>2024-9-11T6:51:53Z</time></trkpt>
<trkpt lat="46.07787143" lon="7.52764005"><ele></ele><time>2024-9-11T6:51:56Z</time></trkpt>
<trkpt lat="46.07774503" lon="7.52780995"><ele></ele><time>2024-9-11T6:51:59Z</time></trkpt>
<trkpt lat="46.07766020" lon="7.52799268"><ele></ele><time>2024-9-11T6:52:2Z</time></trkpt>
<trkpt lat="46.07750162" lon="7.52815017"><ele></ele><time>2024-9-11T6:52:5Z</time></trkpt>
<trkpt lat="46.07738787" lon="7.52832175"><ele></ele><time>2024-9-11T6:52:8Z</time></trkpt>
<trkpt lat="46.07730908" lon="7.52846014"><ele></ele><time>2024-9-11T6:52:11Z</time></trkpt>
<trkpt lat="46.07715880" lon="7.52864278"><ele></ele><time>2024-9-11T6:52:14Z</time></trkpt>
<trkpt lat="46.07702812" lon="7.52907881"><ele></ele><time>2024-9-11T6:52:17Z</time></trkpt>
<trkpt lat="46.07684364" lon="7.52959220"><ele></ele><time>2024-9-11T6:52:20Z</time></trkpt>
<trkpt lat="46.07657793" lon="7.53015714"><ele></ele><time>2024-9-11T6:52:23Z</time></trkpt>
<trkpt lat="46.07617568" lon="7.53050993"><ele></ele><time>2024-9-11T6:52:26Z</time></trkpt>
<trkpt lat="46.07578182" lon="7.53102198"><ele></ele><time>2024-9-11T6:52:29Z</time></trkpt>
<trkpt lat="46.07538242" lon="7.53152490"><ele></ele><time>2024-9-11T6:52:32Z</time></trkpt>
<trkpt lat="46.07532911" lon="7.53161266"><ele></ele><time>2024-9-11T6:52:35Z</time></trkpt>
<trkpt lat="46.07511445" lon="7.53228480"><ele></ele><time>2024-9-11T6:52:38Z</time></trkpt>
<trkpt lat="46.07499928" lon="7.53285536"><ele></ele><time>2024-9-11T6:52:41Z</time></trkpt>
<trkpt lat="46.07498285" lon="7.53291596"><ele></ele><time>2024-9-11T6:52:44Z</time></trkpt>
<trkpt lat="46.07472871" lon="7.53321167"><ele></ele><time>2024-9-11T6:52:47Z</time></trkpt>
<trkpt lat="46.07466434" lon="7.53329482"><ele></ele><time>2024-9-11T6:52:50Z</time></trkpt>
<trkpt lat="46.07451967" lon="7.53374141"><ele></ele><time>2024-9-11T6:52:53Z</time></trkpt>
<trkpt lat="46.07440081" lon="7.53413603"><ele></ele><time>2024-9-11T6:52:56Z</time></trkpt>
<trkpt lat="46.07422764" lon="7.53434557"><ele></ele><time>2024-9-11T6:52:59Z</time></trkpt>
<trkpt lat="46.07400686" lon="7.53447675"><ele></ele><time>2024-9-11T6:53:2Z</time></trkpt>
<trkpt lat="46.07391123" lon="7.53467616"><ele></ele><time>2024-9-11T6:53:5Z</time></trkpt>
<trkpt lat="46.07381869" lon="7.53514680"><ele></ele><time>2024-9-11T6:53:8Z</time></trkpt>
<trkpt lat="46.07349548" lon="7.53601349"><ele></ele><time>2024-9-11T6:53:11Z</time></trkpt>
<trkpt lat="46.07311218" lon="7.53704564"><ele></ele><time>2024-9-11T6:53:14Z</time></trkpt>
<trkpt lat="46.07300908" lon="7.53759415"><ele></ele><time>2024-9-11T6:53:17Z</time></trkpt>
<trkpt lat="46.07291479" lon="7.53769071"><ele></ele><time>2024-9-11T6:53:20Z</time></trkpt>
<trkpt lat="46.07219595" lon="7.53778945"><ele></ele><time>2024-9-11T6:53:23Z</time></trkpt>
<trkpt lat="46.07186604" lon="7.53782658"><ele></ele><time>2024-9-11T6:53:26Z</time></trkpt>
<trkpt lat="46.07175792" lon="7.53794418"><ele></ele><time>2024-9-11T6:53:29Z</time></trkpt>
<trkpt lat="46.07166664" lon="7.53825674"><ele></ele><time>2024-9-11T6:53:32Z</time></trkpt>
<trkpt lat="46.07148232" lon="7.53849286"><ele></ele><time>2024-9-11T6:53:35Z</time></trkpt>
<trkpt lat="46.07141049" lon="7.53854600"><ele></ele><time>2024-9-11T6:53:38Z</time></trkpt>
<trkpt lat="46.07135131" lon="7.53875814"><ele></ele><time>2024-9-11T6:53:41Z</time></trkpt>
<trkpt lat="46.07121494" lon="7.53904405"><ele></ele><time>2024-9-11T6:53:44Z</time></trkpt>
<trkpt lat="46.07009863" lon="7.53890877"><ele></ele><time>2024-9-11T6:53:47Z</time></trkpt>
<trkpt lat="46.06997031" lon="7.53894556"><ele></ele><time>2024-9-11T6:53:50Z</time></trkpt>
<trkpt lat="46.06990971" lon="7.53898756"><ele></ele><time>2024-9-11T6:53:53Z</time></trkpt>
<trkpt lat="46.06969203" lon="7.53929811"><ele></ele><time>2024-9-11T6:53:56Z</time></trkpt>
<trkpt lat="46.06950939" lon="7.53941302"><ele></ele><time>2024-9-11T6:53:59Z</time></trkpt>
<trkpt lat="46.06913522" lon="7.53920104"><ele></ele><time>2024-9-11T6:54:2Z</time></trkpt>
<trkpt lat="46.06910018" lon="7.53918026"><ele></ele><time>2024-9-11T6:54:5Z</time></trkpt>
<trkpt lat="46.06896842" lon="7.53923910"><ele></ele><time>2024-9-11T6:54:8Z</time></trkpt>
<trkpt lat="46.06874387" lon="7.53941839"><ele></ele><time>2024-9-11T6:54:11Z</time></trkpt>
<trkpt lat="46.06850381" lon="7.53954579"><ele></ele><time>2024-9-11T6:54:14Z</time></trkpt>
<trkpt lat="46.06833961" lon="7.53965911"><ele></ele><time>2024-9-11T6:54:17Z</time></trkpt>
<trkpt lat="46.06817306" lon="7.53999665"><ele></ele><time>2024-9-11T6:54:20Z</time></trkpt>
<trkpt lat="46.06808136" lon="7.54035666"><ele></ele><time>2024-9-11T6:54:23Z</time></trkpt>
<trkpt lat="46.06804247" lon="7.54063460"><ele></ele><time>2024-9-11T6:54:26Z</time></trkpt>
<trkpt lat="46.06801456" lon="7.54086971"><ele></ele><time>2024-9-11T6:54:29Z</time></trkpt>
<trkpt lat="46.06800819" lon="7.54123810"><ele></ele><time>2024-9-11T6:54:32Z</time></trkpt>
<trkpt lat="46.06803275" lon="7.54165216"><ele></ele><time>2024-9-11T6:54:35Z</time></trkpt>
<trkpt lat="46.06792009" lon="7.54196841"><ele></ele><time>2024-9-11T6:54:38Z</time></trkpt>
<trkpt lat="46.06789922" lon="7.54202080"><ele></ele><time>2024-9-11T6:54:41Z</time></trkpt>
<trkpt lat="46.06736530" lon="7.54248105"><ele></ele><time>2024-9-11T6:54:44Z</time></trkpt>
<trkpt lat="46.06701284" lon="7.54262631"><ele></ele><time>2024-9-11T6:54:47Z</time></trkpt>
<trkpt lat="46.06691301" lon="7.54280719"><ele></ele><time>2024-9-11T6:54:50Z</time></trkpt>
<trkpt lat="46.06675484" lon="7.54307197"><ele></ele><time>2024-9-11T6:54:53Z</time></trkpt>
<trkpt lat="46.06655007" lon="7.54327985"><ele></ele><time>2024-9-11T6:54:56Z</time></trkpt>
<trkpt lat="46.06635938" lon="7.54341957"><ele></ele><time>2024-9-11T6:54:59Z</time></trkpt>
<trkpt lat="46.06614288" lon="7.54354253"><ele></ele><time>2024-9-11T6:55:2Z</time></trkpt>
<trkpt lat="46.06596745" lon="7.54362158"><ele></ele><time>2024-9-11T6:55:5Z</time></trkpt>
<trkpt lat="46.06568816" lon="7.54371218"><ele></ele><time>2024-9-11T6:55:8Z</time></trkpt>
<trkpt lat="46.06546797" lon="7.54379014"><ele></ele><time>2024-9-11T6:55:11Z</time></trkpt>
<trkpt lat="46.06528650" lon="7.54399708"><ele></ele><time>2024-9-11T6:55:14Z</time></trkpt>
<trkpt lat="46.06517938" lon="7.54420370"><ele></ele><time>2024-9-11T6:55:17Z</time></trkpt>
<trkpt lat="46.06512289" lon="7.54435013"><ele></ele><time>2024-9-11T6:55:20Z</time></trkpt>
<trkpt lat="46.06512020" lon="7.54441517"><ele></ele><time>2024-9-11T6:55:23Z</time></trkpt>
<trkpt lat="46.06504116" lon="7.54466948"><ele></ele><time>2024-9-11T6:55:26Z</time></trkpt>
<trkpt lat="46.06495650" lon="7.54485908"><ele></ele><time>2024-9-11T6:55:29Z</time></trkpt>
<trkpt lat="46.06480571" lon="7.54511012"><ele></ele><time>2024-9-11T6:55:32Z</time></trkpt>
<trkpt lat="46.06478887" lon="7.54511573"><ele></ele><time>2024-9-11T6:55:35Z</time></trkpt>
<trkpt lat="46.06465844" lon="7.54559535"><ele></ele><time>2024-9-11T6:55:38Z</time></trkpt>
<trkpt lat="46.06463774" lon="7.54603866"><ele></ele><time>2024-9-11T6:55:41Z</time></trkpt>
<trkpt lat="46.06454194" lon="7.54630563"><ele></ele><time>2024-9-11T6:55:44Z</time></trkpt>
<trkpt lat="46.06432518" lon="7.54646388"><ele></ele><time>2024-9-11T6:55:47Z</time></trkpt>
<trkpt lat="46.06397565" lon="7.54660671"><ele></ele><time>2024-9-11T6:55:50Z</time></trkpt>
<trkpt lat="46.06378388" lon="7.54664669"><ele></ele><time>2024-9-11T6:55:53Z</time></trkpt>
<trkpt lat="46.06362320" lon="7.54677099"><ele></ele><time>2024-9-11T6:55:56Z</time></trkpt>
<trkpt lat="46.06343812" lon="7.54694433"><ele></ele><time>2024-9-11T6:55:59Z</time></trkpt>
<trkpt lat="46.06327996" lon="7.54707349"><ele></ele><time>2024-9-11T6:56:2Z</time></trkpt>
<trkpt lat="46.06308784" lon="7.54721624"><ele></ele><time>2024-9-11T6:56:5Z</time></trkpt>
<trkpt lat="46.06288022" lon="7.54734415"><ele></ele><time>2024-9-11T6:56:8Z</time></trkpt>
<trkpt lat="46.06267814" lon="7.54750583"><ele></ele><time>2024-9-11T6:56:11Z</time></trkpt>
<trkpt lat="46.06246716" lon="7.54772728"><ele></ele><time>2024-9-11T6:56:14Z</time></trkpt>
<trkpt lat="46.06223658" lon="7.54788335"><ele></ele><time>2024-9-11T6:56:17Z</time></trkpt>
<trkpt lat="46.06203424" lon="7.54784480"><ele></ele><time>2024-9-11T6:56:20Z</time></trkpt>
<trkpt lat="46.06184229" lon="7.54769937"><ele></ele><time>2024-9-11T6:56:23Z</time></trkpt>
<trkpt lat="46.06170299" lon="7.54779350"><ele></ele><time>2024-9-11T6:56:26Z</time></trkpt>
<trkpt lat="46.06168052" lon="7.54803280"><ele></ele><time>2024-9-11T6:56:29Z</time></trkpt>
<trkpt lat="46.06171045" lon="7.54810246"><ele></ele><time>2024-9-11T6:56:32Z</time></trkpt>
<trkpt lat="46.06198403" lon="7.54823447"><ele></ele><time>2024-9-11T6:56:35Z</time></trkpt>
<trkpt lat="46.06204983" lon="7.54825040"><ele></ele><time>2024-9-11T6:56:38Z</time></trkpt>
<trkpt lat="46.06262986" lon="7.54800632"><ele></ele><time>2024-9-11T6:56:41Z</time></trkpt>
<trkpt lat="46.06265517" lon="7.54799391"><ele></ele><time>2024-9-11T6:56:44Z</time></trkpt>
<trkpt lat="46.06337878" lon="7.54801034"><ele></ele><time>2024-9-11T6:56:47Z</time></trkpt>
<trkpt lat="46.06342907" lon="7.54809223"><ele></ele><time>2024-9-11T6:56:50Z</time></trkpt>
<trkpt lat="46.06332723" lon="7.54816054"><ele></ele><time>2024-9-11T6:56:53Z</time></trkpt>
<trkpt lat="46.06310410" lon="7.54826238"><ele></ele><time>2024-9-11T6:56:56Z</time></trkpt>
<trkpt lat="46.06293102" lon="7.54835987"><ele></ele><time>2024-9-11T6:56:59Z</time></trkpt>
<trkpt lat="46.06289648" lon="7.54837856"><ele></ele><time>2024-9-11T6:57:2Z</time></trkpt>
<trkpt lat="46.06282666" lon="7.54840488"><ele></ele><time>2024-9-11T6:57:5Z</time></trkpt>
<trkpt lat="46.06263899" lon="7.54848400"><ele></ele><time>2024-9-11T6:57:8Z</time></trkpt>
<trkpt lat="46.06245300" lon="7.54852172"><ele></ele><time>2024-9-11T6:57:11Z</time></trkpt>
<trkpt lat="46.06221889" lon="7.54856857"><ele></ele><time>2024-9-11T6:57:14Z</time></trkpt>
<trkpt lat="46.06202938" lon="7.54871216"><ele></ele><time>2024-9-11T6:57:17Z</time></trkpt>
<trkpt lat="46.06186316" lon="7.54883931"><ele></ele><time>2024-9-11T6:57:20Z</time></trkpt>
<trkpt lat="46.06167700" lon="7.54897736"><ele></ele><time>2024-9-11T6:57:23Z</time></trkpt>
<trkpt lat="46.06150433" lon="7.54911139"><ele></ele><time>2024-9-11T6:57:26Z</time></trkpt>
<trkpt lat="46.06134097" lon="7.54931079"><ele></ele><time>2024-9-11T6:57:29Z</time></trkpt>
<trkpt lat="46.06125908" lon="7.54955781"><ele></ele><time>2024-9-11T6:57:32Z</time></trkpt>
<trkpt lat="46.06109555" lon="7.54980910"><ele></ele><time>2024-9-11T6:57:35Z</time></trkpt>
<trkpt lat="46.06087829" lon="7.55005678"><ele></ele><time>2024-9-11T6:57:38Z</time></trkpt>
<trkpt lat="46.06058928" lon="7.55025493"><ele></ele><time>2024-9-11T6:57:41Z</time></trkpt>
<trkpt lat="46.06035023" lon="7.55026700"><ele></ele><time>2024-9-11T6:57:44Z</time></trkpt>
<trkpt lat="46.06007430" lon="7.55027790"><ele></ele><time>2024-9-11T6:57:47Z</time></trkpt>
<trkpt lat="46.05986953" lon="7.55046465"><ele></ele><time>2024-9-11T6:57:50Z</time></trkpt>
<trkpt lat="46.05968873" lon="7.55062868"><ele></ele><time>2024-9-11T6:57:53Z</time></trkpt>
<trkpt lat="46.05949938" lon="7.55058576"><ele></ele><time>2024-9-11T6:57:56Z</time></trkpt>
<trkpt lat="46.05938195" lon="7.55042475"><ele></ele><time>2024-9-11T6:57:59Z</time></trkpt>
<trkpt lat="46.05916989" lon="7.54999006"><ele></ele><time>2024-9-11T6:58:2Z</time></trkpt>
<trkpt lat="46.05912052" lon="7.54975168"><ele></ele><time>2024-9-11T6:58:5Z</time></trkpt>
<trkpt lat="46.05895112" lon="7.54954272"><ele></ele><time>2024-9-11T6:58:8Z</time></trkpt>
<trkpt lat="46.05888482" lon="7.54939386"><ele></ele><time>2024-9-11T6:58:11Z</time></trkpt>
<trkpt lat="46.05887451" lon="7.54937802"><ele></ele><time>2024-9-11T6:58:14Z</time></trkpt>
<trkpt lat="46.05877887" lon="7.54923586"><ele></ele><time>2024-9-11T6:58:17Z</time></trkpt>
<trkpt lat="46.05863462" lon="7.54924055"><ele></ele><time>2024-9-11T6:58:20Z</time></trkpt>
<trkpt lat="46.05841644" lon="7.54932077"><ele></ele><time>2024-9-11T6:58:23Z</time></trkpt>
<trkpt lat="46.05826909" lon="7.54938480"><ele></ele><time>2024-9-11T6:58:26Z</time></trkpt>
<trkpt lat="46.05819851" lon="7.54953015"><ele></ele><time>2024-9-11T6:58:29Z</time></trkpt>
<trkpt lat="46.05818208" lon="7.54955035"><ele></ele><time>2024-9-11T6:58:32Z</time></trkpt>
<trkpt lat="46.05836472" lon="7.54915313"><ele></ele><time>2024-9-11T6:58:35Z</time></trkpt>
<trkpt lat="46.05831586" lon="7.54918816"><ele></ele><time>2024-9-11T6:58:38Z</time></trkpt>
<trkpt lat="46.05821201" lon="7.54917450"><ele></ele><time>2024-9-11T6:58:41Z</time></trkpt>
<trkpt lat="46.05805971" lon="7.54926025"><ele></ele><time>2024-9-11T6:58:44Z</time></trkpt>
<trkpt lat="46.05800766" lon="7.54928472"><ele></ele><time>2024-9-11T6:58:47Z</time></trkpt>
<trkpt lat="46.05788754" lon="7.54919990"><ele></ele><time>2024-9-11T6:58:50Z</time></trkpt>
<trkpt lat="46.05769610" lon="7.54909060"><ele></ele><time>2024-9-11T6:58:53Z</time></trkpt>
<trkpt lat="46.05751572" lon="7.54913989"><ele></ele><time>2024-9-11T6:58:56Z</time></trkpt>
<trkpt lat="46.05731741" lon="7.54916897"><ele></ele><time>2024-9-11T6:58:59Z</time></trkpt>
<trkpt lat="46.05715496" lon="7.54914919"><ele></ele><time>2024-9-11T6:59:2Z</time></trkpt>
<trkpt lat="46.05699596" lon="7.54909194"><ele></ele><time>2024-9-11T6:59:5Z</time></trkpt>
<trkpt lat="46.05680200" lon="7.54911851"><ele></ele><time>2024-9-11T6:59:8Z</time></trkpt>
<trkpt lat="46.05667736" lon="7.54926385"><ele></ele><time>2024-9-11T6:59:11Z</time></trkpt>
<trkpt lat="46.05666990" lon="7.54928229"><ele></ele><time>2024-9-11T6:59:14Z</time></trkpt>
<trkpt lat="46.05664778" lon="7.54949897"><ele></ele><time>2024-9-11T6:59:17Z</time></trkpt>
<trkpt lat="46.05663965" lon="7.54975009"><ele></ele><time>2024-9-11T6:59:20Z</time></trkpt>
<trkpt lat="46.05665029" lon="7.54992988"><ele></ele><time>2024-9-11T6:59:23Z</time></trkpt>
<trkpt lat="46.05644460" lon="7.55004656"><ele></ele><time>2024-9-11T6:59:26Z</time></trkpt>
<trkpt lat="46.05634728" lon="7.54986148"><ele></ele><time>2024-9-11T6:59:29Z</time></trkpt>
<trkpt lat="46.05622726" lon="7.54968043"><ele></ele><time>2024-9-11T6:59:32Z</time></trkpt>
<trkpt lat="46.05620253" lon="7.54966384"><ele></ele><time>2024-9-11T6:59:35Z</time></trkpt>
<trkpt lat="46.05603632" lon="7.54967742"><ele></ele><time>2024-9-11T6:59:38Z</time></trkpt>
<trkpt lat="46.05587413" lon="7.54965135"><ele></ele><time>2024-9-11T6:59:41Z</time></trkpt>
<trkpt lat="46.05575301" lon="7.54964833"><ele></ele><time>2024-9-11T6:59:44Z</time></trkpt>
<trkpt lat="46.05575913" lon="7.54971857"><ele></ele><time>2024-9-11T6:59:47Z</time></trkpt>
<trkpt lat="46.05591964" lon="7.54994815"><ele></ele><time>2024-9-11T6:59:50Z</time></trkpt>
<trkpt lat="46.05600237" lon="7.55008821"><ele></ele><time>2024-9-11T6:59:53Z</time></trkpt>
<trkpt lat="46.05601980" lon="7.55010623"><ele></ele><time>2024-9-11T6:59:56Z</time></trkpt>
<trkpt lat="46.05590229" lon="7.54994136"><ele></ele><time>2024-9-11T6:59:59Z</time></trkpt>
<trkpt lat="46.05587480" lon="7.54994405"><ele></ele><time>2024-9-11T7:0:2Z</time></trkpt>
<trkpt lat="46.05588536" lon="7.54994882"><ele></ele><time>2024-9-11T7:0:5Z</time></trkpt>
<trkpt lat="46.05594546" lon="7.55000817"><ele></ele><time>2024-9-11T7:0:8Z</time></trkpt>
<trkpt lat="46.05600824" lon="7.55002376"><ele></ele><time>2024-9-11T7:0:11Z</time></trkpt>
<trkpt lat="46.05602173" lon="7.55001605"><ele></ele><time>2024-9-11T7:0:14Z</time></trkpt>
<trkpt lat="46.05587094" lon="7.54994094"><ele></ele><time>2024-9-11T7:0:17Z</time></trkpt>
<trkpt lat="46.05587295" lon="7.54994379"><ele></ele><time>2024-9-11T7:0:20Z</time></trkpt>
<trkpt lat="46.05592383" lon="7.55000741"><ele></ele><time>2024-9-11T7:0:23Z</time></trkpt>
<trkpt lat="46.05599206" lon="7.55019408"><ele></ele><time>2024-9-11T7:0:26Z</time></trkpt>
<trkpt lat="46.05603539" lon="7.55044193"><ele></ele><time>2024-9-11T7:0:29Z</time></trkpt>
<trkpt lat="46.05603456" lon="7.55072591"><ele></ele><time>2024-9-11T7:0:32Z</time></trkpt>
<trkpt lat="46.05602743" lon="7.55095381"><ele></ele><time>2024-9-11T7:0:35Z</time></trkpt>
<trkpt lat="46.05591805" lon="7.55094878"><ele></ele><time>2024-9-11T7:0:38Z</time></trkpt>
<trkpt lat="46.05588888" lon="7.55089137"><ele></ele><time>2024-9-11T7:0:41Z</time></trkpt>
<trkpt lat="46.05580606" lon="7.55061342"><ele></ele><time>2024-9-11T7:0:44Z</time></trkpt>
<trkpt lat="46.05570942" lon="7.55040337"><ele></ele><time>2024-9-11T7:0:47Z</time></trkpt>
<trkpt lat="46.05553458" lon="7.55025267"><ele></ele><time>2024-9-11T7:0:50Z</time></trkpt>
<trkpt lat="46.05535445" lon="7.55029952"><ele></ele><time>2024-9-11T7:0:53Z</time></trkpt>
<trkpt lat="46.05522285" lon="7.55037487"><ele></ele><time>2024-9-11T7:0:56Z</time></trkpt>
<trkpt lat="46.05504742" lon="7.55046096"><ele></ele><time>2024-9-11T7:0:59Z</time></trkpt>
<trkpt lat="46.05491767" lon="7.55055408"><ele></ele><time>2024-9-11T7:1:2Z</time></trkpt>
<trkpt lat="46.05481675" lon="7.55063932"><ele></ele><time>2024-9-11T7:1:5Z</time></trkpt>
<trkpt lat="46.05461659" lon="7.55082490"><ele></ele><time>2024-9-11T7:1:8Z</time></trkpt>
<trkpt lat="46.05448533" lon="7.55083152"><ele></ele><time>2024-9-11T7:1:11Z</time></trkpt>
<trkpt lat="46.05432238" lon="7.55067386"><ele></ele><time>2024-9-11T7:1:14Z</time></trkpt>
<trkpt lat="46.05425349" lon="7.55053774"><ele></ele><time>2024-9-11T7:1:17Z</time></trkpt>
<trkpt lat="46.05414536" lon="7.55055173"><ele></ele><time>2024-9-11T7:1:20Z</time></trkpt>
<trkpt lat="46.05407621" lon="7.55066413"><ele></ele><time>2024-9-11T7:1:23Z</time></trkpt>
<trkpt lat="46.05407747" lon="7.55070814"><ele></ele><time>2024-9-11T7:1:26Z</time></trkpt>
<trkpt lat="46.05390086" lon="7.55090646"><ele></ele><time>2024-9-11T7:1:29Z</time></trkpt>
<trkpt lat="46.05381796" lon="7.55113662"><ele></ele><time>2024-9-11T7:1:32Z</time></trkpt>
<trkpt lat="46.05363180" lon="7.55127786"><ele></ele><time>2024-9-11T7:1:35Z</time></trkpt>
<trkpt lat="46.05339518" lon="7.55130895"><ele></ele><time>2024-9-11T7:1:38Z</time></trkpt>
<trkpt lat="46.05320784" lon="7.55148942"><ele></ele><time>2024-9-11T7:1:41Z</time></trkpt>
<trkpt lat="46.05310818" lon="7.55186182"><ele></ele><time>2024-9-11T7:1:44Z</time></trkpt>
<trkpt lat="46.05294742" lon="7.55200775"><ele></ele><time>2024-9-11T7:1:47Z</time></trkpt>
<trkpt lat="46.05282102" lon="7.55211244"><ele></ele><time>2024-9-11T7:1:50Z</time></trkpt>
<trkpt lat="46.05266059" lon="7.55236440"><ele></ele><time>2024-9-11T7:1:53Z</time></trkpt>
<trkpt lat="46.05252891" lon="7.55266339"><ele></ele><time>2024-9-11T7:1:56Z</time></trkpt>
<trkpt lat="46.05238080" lon="7.55285734"><ele></ele><time>2024-9-11T7:1:59Z</time></trkpt>
<trkpt lat="46.05231266" lon="7.55296891"><ele></ele><time>2024-9-11T7:2:2Z</time></trkpt>
<trkpt lat="46.05214854" lon="7.55308474"><ele></ele><time>2024-9-11T7:2:5Z</time></trkpt>
<trkpt lat="46.05187328" lon="7.55317393"><ele></ele><time>2024-9-11T7:2:8Z</time></trkpt>
<trkpt lat="46.05160992" lon="7.55324475"><ele></ele><time>2024-9-11T7:2:11Z</time></trkpt>
<trkpt lat="46.05143775" lon="7.55310595"><ele></ele><time>2024-9-11T7:2:14Z</time></trkpt>
<trkpt lat="46.05123374" lon="7.55311609"><ele></ele><time>2024-9-11T7:2:17Z</time></trkpt>
<trkpt lat="46.05096216" lon="7.55312699"><ele></ele><time>2024-9-11T7:2:20Z</time></trkpt>
<trkpt lat="46.05074088" lon="7.55303772"><ele></ele><time>2024-9-11T7:2:23Z</time></trkpt>
<trkpt lat="46.05065849" lon="7.55287687"><ele></ele><time>2024-9-11T7:2:26Z</time></trkpt>
<trkpt lat="46.05050770" lon="7.55285374"><ele></ele><time>2024-9-11T7:2:29Z</time></trkpt>
<trkpt lat="46.05033327" lon="7.55287302"><ele></ele><time>2024-9-11T7:2:32Z</time></trkpt>
<trkpt lat="46.05018273" lon="7.55291233"><ele></ele><time>2024-9-11T7:2:35Z</time></trkpt>
<trkpt lat="46.05016982" lon="7.55292348"><ele></ele><time>2024-9-11T7:2:38Z</time></trkpt>
<trkpt lat="46.05018181" lon="7.55294611"><ele></ele><time>2024-9-11T7:2:41Z</time></trkpt>
<trkpt lat="46.05020058" lon="7.55276749"><ele></ele><time>2024-9-11T7:2:44Z</time></trkpt>
<trkpt lat="46.05025758" lon="7.55278434"><ele></ele><time>2024-9-11T7:2:47Z</time></trkpt>
<trkpt lat="46.05049487" lon="7.55278031"><ele></ele><time>2024-9-11T7:2:50Z</time></trkpt>
<trkpt lat="46.05067408" lon="7.55282935"><ele></ele><time>2024-9-11T7:2:53Z</time></trkpt>
<trkpt lat="46.05072881" lon="7.55289464"><ele></ele><time>2024-9-11T7:2:56Z</time></trkpt>
<trkpt lat="46.05099192" lon="7.55306572"><ele></ele><time>2024-9-11T7:2:59Z</time></trkpt>
<trkpt lat="46.05146114" lon="7.55310419"><ele></ele><time>2024-9-11T7:3:2Z</time></trkpt>
<trkpt lat="46.05174956" lon="7.55327510"><ele></ele><time>2024-9-11T7:3:5Z</time></trkpt>
<trkpt lat="46.05192709" lon="7.55320352"><ele></ele><time>2024-9-11T7:3:8Z</time></trkpt>
<trkpt lat="46.05232431" lon="7.55300872"><ele></ele><time>2024-9-11T7:3:11Z</time></trkpt>
<trkpt lat="46.05249806" lon="7.55281166"><ele></ele><time>2024-9-11T7:3:14Z</time></trkpt>
<trkpt lat="46.05262170" lon="7.55252944"><ele></ele><time>2024-9-11T7:3:17Z</time></trkpt>
<trkpt lat="46.05276209" lon="7.55222225"><ele></ele><time>2024-9-11T7:3:20Z</time></trkpt>
<trkpt lat="46.05278833" lon="7.55217849"><ele></ele><time>2024-9-11T7:3:23Z</time></trkpt>
<trkpt lat="46.05308111" lon="7.55189233"><ele></ele><time>2024-9-11T7:3:26Z</time></trkpt>
<trkpt lat="46.05316635" lon="7.55171296"><ele></ele><time>2024-9-11T7:3:29Z</time></trkpt>
<trkpt lat="46.05319108" lon="7.55159872"><ele></ele><time>2024-9-11T7:3:32Z</time></trkpt>
<trkpt lat="46.05323969" lon="7.55137987"><ele></ele><time>2024-9-11T7:3:35Z</time></trkpt>
<trkpt lat="46.05342234" lon="7.55129848"><ele></ele><time>2024-9-11T7:3:38Z</time></trkpt>
<trkpt lat="46.05363029" lon="7.55126243"><ele></ele><time>2024-9-11T7:3:41Z</time></trkpt>
<trkpt lat="46.05365795" lon="7.55124450"><ele></ele><time>2024-9-11T7:3:44Z</time></trkpt>
<trkpt lat="46.05383204" lon="7.55105783"><ele></ele><time>2024-9-11T7:3:47Z</time></trkpt>
<trkpt lat="46.05398200" lon="7.55079271"><ele></ele><time>2024-9-11T7:3:50Z</time></trkpt>
<trkpt lat="46.05407394" lon="7.55066204"><ele></ele><time>2024-9-11T7:3:53Z</time></trkpt>
<trkpt lat="46.05419138" lon="7.55048594"><ele></ele><time>2024-9-11T7:3:56Z</time></trkpt>
<trkpt lat="46.05428643" lon="7.55054838"><ele></ele><time>2024-9-11T7:3:59Z</time></trkpt>
<trkpt lat="46.05437192" lon="7.55070378"><ele></ele><time>2024-9-11T7:4:2Z</time></trkpt>
<trkpt lat="46.05448047" lon="7.55082046"><ele></ele><time>2024-9-11T7:4:5Z</time></trkpt>
<trkpt lat="46.05459924" lon="7.55081710"><ele></ele><time>2024-9-11T7:4:8Z</time></trkpt>
<trkpt lat="46.05478138" lon="7.55071426"><ele></ele><time>2024-9-11T7:4:11Z</time></trkpt>
<trkpt lat="46.05497424" lon="7.55051116"><ele></ele><time>2024-9-11T7:4:14Z</time></trkpt>
<trkpt lat="46.05519536" lon="7.55039759"><ele></ele><time>2024-9-11T7:4:17Z</time></trkpt>
<trkpt lat="46.05538781" lon="7.55028184"><ele></ele><time>2024-9-11T7:4:20Z</time></trkpt>
<trkpt lat="46.05559082" lon="7.55030095"><ele></ele><time>2024-9-11T7:4:23Z</time></trkpt>
<trkpt lat="46.05584655" lon="7.55075416"><ele></ele><time>2024-9-11T7:4:26Z</time></trkpt>
<trkpt lat="46.05588921" lon="7.55095608"><ele></ele><time>2024-9-11T7:4:29Z</time></trkpt>
<trkpt lat="46.05602156" lon="7.55089061"><ele></ele><time>2024-9-11T7:4:32Z</time></trkpt>
<trkpt lat="46.05595535" lon="7.55000733"><ele></ele><time>2024-9-11T7:4:35Z</time></trkpt>
<trkpt lat="46.05589743" lon="7.54993885"><ele></ele><time>2024-9-11T7:4:38Z</time></trkpt>
<trkpt lat="46.05580070" lon="7.54982192"><ele></ele><time>2024-9-11T7:4:41Z</time></trkpt>
<trkpt lat="46.05579467" lon="7.54963467"><ele></ele><time>2024-9-11T7:4:44Z</time></trkpt>
<trkpt lat="46.05597848" lon="7.54963299"><ele></ele><time>2024-9-11T7:4:47Z</time></trkpt>
<trkpt lat="46.05604805" lon="7.54963316"><ele></ele><time>2024-9-11T7:4:50Z</time></trkpt>
<trkpt lat="46.05633882" lon="7.54978571"><ele></ele><time>2024-9-11T7:4:53Z</time></trkpt>
<trkpt lat="46.05636505" lon="7.54985671"><ele></ele><time>2024-9-11T7:4:56Z</time></trkpt>
<trkpt lat="46.05657670" lon="7.55000364"><ele></ele><time>2024-9-11T7:4:59Z</time></trkpt>
<trkpt lat="46.05665574" lon="7.54976719"><ele></ele><time>2024-9-11T7:5:2Z</time></trkpt>
<trkpt lat="46.05669061" lon="7.54926117"><ele></ele><time>2024-9-11T7:5:5Z</time></trkpt>
<trkpt lat="46.05673076" lon="7.54915154"><ele></ele><time>2024-9-11T7:5:8Z</time></trkpt>
<trkpt lat="46.05692354" lon="7.54893998"><ele></ele><time>2024-9-11T7:5:11Z</time></trkpt>
<trkpt lat="46.05713451" lon="7.54895213"><ele></ele><time>2024-9-11T7:5:14Z</time></trkpt>
<trkpt lat="46.05737742" lon="7.54893713"><ele></ele><time>2024-9-11T7:5:17Z</time></trkpt>
<trkpt lat="46.05775846" lon="7.54903075"><ele></ele><time>2024-9-11T7:5:20Z</time></trkpt>
<trkpt lat="46.05811687" lon="7.54916486"><ele></ele><time>2024-9-11T7:5:23Z</time></trkpt>
<trkpt lat="46.05841108" lon="7.54918255"><ele></ele><time>2024-9-11T7:5:26Z</time></trkpt>
<trkpt lat="46.05881031" lon="7.54943233"><ele></ele><time>2024-9-11T7:5:29Z</time></trkpt>
<trkpt lat="46.05889270" lon="7.54959494"><ele></ele><time>2024-9-11T7:5:32Z</time></trkpt>
<trkpt lat="46.05911683" lon="7.55015804"><ele></ele><time>2024-9-11T7:5:35Z</time></trkpt>
<trkpt lat="46.05932185" lon="7.55054059"><ele></ele><time>2024-9-11T7:5:38Z</time></trkpt>
<trkpt lat="46.05966342" lon="7.55066221"><ele></ele><time>2024-9-11T7:5:41Z</time></trkpt>
<trkpt lat="46.05974237" lon="7.55057520"><ele></ele><time>2024-9-11T7:5:44Z</time></trkpt>
<trkpt lat="46.06027228" lon="7.55022878"><ele></ele><time>2024-9-11T7:5:47Z</time></trkpt>
<trkpt lat="46.06100176" lon="7.55007036"><ele></ele><time>2024-9-11T7:5:50Z</time></trkpt>
<trkpt lat="46.06131851" lon="7.54965437"><ele></ele><time>2024-9-11T7:5:53Z</time></trkpt>
<trkpt lat="46.06138464" lon="7.54943644"><ele></ele><time>2024-9-11T7:5:56Z</time></trkpt>
<trkpt lat="46.06158447" lon="7.54910384"><ele></ele><time>2024-9-11T7:5:59Z</time></trkpt>
<trkpt lat="46.06228251" lon="7.54854184"><ele></ele><time>2024-9-11T7:6:2Z</time></trkpt>
<trkpt lat="46.06239013" lon="7.54847419"><ele></ele><time>2024-9-11T7:6:5Z</time></trkpt>
<trkpt lat="46.06301878" lon="7.54825350"><ele></ele><time>2024-9-11T7:6:8Z</time></trkpt>
<trkpt lat="46.06350275" lon="7.54772301"><ele></ele><time>2024-9-11T7:6:11Z</time></trkpt>
<trkpt lat="46.06339588" lon="7.54766014"><ele></ele><time>2024-9-11T7:6:14Z</time></trkpt>
<trkpt lat="46.06325288" lon="7.54771748"><ele></ele><time>2024-9-11T7:6:17Z</time></trkpt>
<trkpt lat="46.06304836" lon="7.54789693"><ele></ele><time>2024-9-11T7:6:20Z</time></trkpt>
<trkpt lat="46.06273421" lon="7.54789962"><ele></ele><time>2024-9-11T7:6:23Z</time></trkpt>
<trkpt lat="46.06235661" lon="7.54797648"><ele></ele><time>2024-9-11T7:6:26Z</time></trkpt>
<trkpt lat="46.06204949" lon="7.54813565"><ele></ele><time>2024-9-11T7:6:29Z</time></trkpt>
<trkpt lat="46.06173140" lon="7.54808486"><ele></ele><time>2024-9-11T7:6:32Z</time></trkpt>
<trkpt lat="46.06240992" lon="7.54778646"><ele></ele><time>2024-9-11T7:6:35Z</time></trkpt>
<trkpt lat="46.06314937" lon="7.54721180"><ele></ele><time>2024-9-11T7:6:38Z</time></trkpt>
<trkpt lat="46.06389192" lon="7.54661492"><ele></ele><time>2024-9-11T7:6:41Z</time></trkpt>
<trkpt lat="46.06428126" lon="7.54644452"><ele></ele><time>2024-9-11T7:6:44Z</time></trkpt>
<trkpt lat="46.06456432" lon="7.54611201"><ele></ele><time>2024-9-11T7:6:47Z</time></trkpt>
<trkpt lat="46.06463162" lon="7.54578419"><ele></ele><time>2024-9-11T7:6:50Z</time></trkpt>
<trkpt lat="46.06483891" lon="7.54503518"><ele></ele><time>2024-9-11T7:6:53Z</time></trkpt>
<trkpt lat="46.06515742" lon="7.54429221"><ele></ele><time>2024-9-11T7:6:56Z</time></trkpt>
<trkpt lat="46.06545053" lon="7.54382467"><ele></ele><time>2024-9-11T7:6:59Z</time></trkpt>
<trkpt lat="46.06576368" lon="7.54369500"><ele></ele><time>2024-9-11T7:7:2Z</time></trkpt>
<trkpt lat="46.06643415" lon="7.54339124"><ele></ele><time>2024-9-11T7:7:5Z</time></trkpt>
<trkpt lat="46.06676515" lon="7.54315747"><ele></ele><time>2024-9-11T7:7:8Z</time></trkpt>
<trkpt lat="46.06719908" lon="7.54252195"><ele></ele><time>2024-9-11T7:7:11Z</time></trkpt>
<trkpt lat="46.06783921" lon="7.54197168"><ele></ele><time>2024-9-11T7:7:14Z</time></trkpt>
<trkpt lat="46.06801699" lon="7.54180681"><ele></ele><time>2024-9-11T7:7:17Z</time></trkpt>
<trkpt lat="46.06810282" lon="7.54124220"><ele></ele><time>2024-9-11T7:7:20Z</time></trkpt>
<trkpt lat="46.06809008" lon="7.54109192"><ele></ele><time>2024-9-11T7:7:23Z</time></trkpt>
<trkpt lat="46.06815454" lon="7.54025758"><ele></ele><time>2024-9-11T7:7:26Z</time></trkpt>
<trkpt lat="46.06830239" lon="7.53975282"><ele></ele><time>2024-9-11T7:7:29Z</time></trkpt>
<trkpt lat="46.06848051" lon="7.53952660"><ele></ele><time>2024-9-11T7:7:32Z</time></trkpt>
<trkpt lat="46.06918518" lon="7.53911505"><ele></ele><time>2024-9-11T7:7:35Z</time></trkpt>
<trkpt lat="46.06926606" lon="7.53909510"><ele></ele><time>2024-9-11T7:7:38Z</time></trkpt>
<trkpt lat="46.06961844" lon="7.53929266"><ele></ele><time>2024-9-11T7:7:41Z</time></trkpt>
<trkpt lat="46.06979026" lon="7.53915587"><ele></ele><time>2024-9-11T7:7:44Z</time></trkpt>
<trkpt lat="46.06998020" lon="7.53890173"><ele></ele><time>2024-9-11T7:7:47Z</time></trkpt>
<trkpt lat="46.07028111" lon="7.53883853"><ele></ele><time>2024-9-11T7:7:50Z</time></trkpt>
<trkpt lat="46.07115274" lon="7.53896006"><ele></ele><time>2024-9-11T7:7:53Z</time></trkpt>
<trkpt lat="46.07145240" lon="7.53876141"><ele></ele><time>2024-9-11T7:7:56Z</time></trkpt>
<trkpt lat="46.07153680" lon="7.53858791"><ele></ele><time>2024-9-11T7:7:59Z</time></trkpt>
<trkpt lat="46.07171609" lon="7.53846268"><ele></ele><time>2024-9-11T7:8:2Z</time></trkpt>
<trkpt lat="46.07208741" lon="7.53801174"><ele></ele><time>2024-9-11T7:8:5Z</time></trkpt>
<trkpt lat="46.07219864" lon="7.53782063"><ele></ele><time>2024-9-11T7:8:8Z</time></trkpt>
<trkpt lat="46.07235789" lon="7.53771728"><ele></ele><time>2024-9-11T7:8:11Z</time></trkpt>
<trkpt lat="46.07287464" lon="7.53770169"><ele></ele><time>2024-9-11T7:8:14Z</time></trkpt>
<trkpt lat="46.07296013" lon="7.53768903"><ele></ele><time>2024-9-11T7:8:17Z</time></trkpt>
<trkpt lat="46.07325794" lon="7.53697867"><ele></ele><time>2024-9-11T7:8:20Z</time></trkpt>
<trkpt lat="46.07329013" lon="7.53651959"><ele></ele><time>2024-9-11T7:8:23Z</time></trkpt>
<trkpt lat="46.07366815" lon="7.53554779"><ele></ele><time>2024-9-11T7:8:26Z</time></trkpt>
<trkpt lat="46.07392732" lon="7.53488051"><ele></ele><time>2024-9-11T7:8:29Z</time></trkpt>
<trkpt lat="46.07403109" lon="7.53448832"><ele></ele><time>2024-9-11T7:8:32Z</time></trkpt>
<trkpt lat="46.07408708" lon="7.53443409"><ele></ele><time>2024-9-11T7:8:35Z</time></trkpt>
<trkpt lat="46.07430652" lon="7.53423820"><ele></ele><time>2024-9-11T7:8:38Z</time></trkpt>
<trkpt lat="46.07451447" lon="7.53375993"><ele></ele><time>2024-9-11T7:8:41Z</time></trkpt>
<trkpt lat="46.07466317" lon="7.53324755"><ele></ele><time>2024-9-11T7:8:44Z</time></trkpt>
<trkpt lat="46.07486584" lon="7.53297245"><ele></ele><time>2024-9-11T7:8:47Z</time></trkpt>
<trkpt lat="46.07510540" lon="7.53251681"><ele></ele><time>2024-9-11T7:8:50Z</time></trkpt>
<trkpt lat="46.07513800" lon="7.53236979"><ele></ele><time>2024-9-11T7:8:53Z</time></trkpt>
<trkpt lat="46.07535258" lon="7.53161115"><ele></ele><time>2024-9-11T7:8:56Z</time></trkpt>
<trkpt lat="46.07544746" lon="7.53136036"><ele></ele><time>2024-9-11T7:8:59Z</time></trkpt>
<trkpt lat="46.07584611" lon="7.53083104"><ele></ele><time>2024-9-11T7:9:2Z</time></trkpt>
<trkpt lat="46.07610871" lon="7.53050993"><ele></ele><time>2024-9-11T7:9:5Z</time></trkpt>
<trkpt lat="46.07624156" lon="7.53030424"><ele></ele><time>2024-9-11T7:9:8Z</time></trkpt>
<trkpt lat="46.07638506" lon="7.53011204"><ele></ele><time>2024-9-11T7:9:11Z</time></trkpt>
<trkpt lat="46.07656988" lon="7.53002604"><ele></ele><time>2024-9-11T7:9:14Z</time></trkpt>
<trkpt lat="46.07675663" lon="7.52993116"><ele></ele><time>2024-9-11T7:9:17Z</time></trkpt>
<trkpt lat="46.07682285" lon="7.52975657"><ele></ele><time>2024-9-11T7:9:20Z</time></trkpt>
<trkpt lat="46.07690533" lon="7.52936547"><ele></ele><time>2024-9-11T7:9:23Z</time></trkpt>
<trkpt lat="46.07704832" lon="7.52906707"><ele></ele><time>2024-9-11T7:9:26Z</time></trkpt>
<trkpt lat="46.07713918" lon="7.52870481"><ele></ele><time>2024-9-11T7:9:29Z</time></trkpt>
<trkpt lat="46.07732736" lon="7.52840557"><ele></ele><time>2024-9-11T7:9:32Z</time></trkpt>
<trkpt lat="46.07757814" lon="7.52808572"><ele></ele><time>2024-9-11T7:9:35Z</time></trkpt>
<trkpt lat="46.07777076" lon="7.52775564"><ele></ele><time>2024-9-11T7:9:38Z</time></trkpt>
<trkpt lat="46.07779817" lon="7.52771306"><ele></ele><time>2024-9-11T7:9:41Z</time></trkpt>
<trkpt lat="46.07804937" lon="7.52750628"><ele></ele><time>2024-9-11T7:9:44Z</time></trkpt>
<trkpt lat="46.07808198" lon="7.52747082"><ele></ele><time>2024-9-11T7:9:47Z</time></trkpt>
<trkpt lat="46.07831818" lon="7.52722037"><ele></ele><time>2024-9-11T7:9:50Z</time></trkpt>
<trkpt lat="46.07848775" lon="7.52683028"><ele></ele><time>2024-9-11T7:9:53Z</time></trkpt>
<trkpt lat="46.07859202" lon="7.52638847"><ele></ele><time>2024-9-11T7:9:56Z</time></trkpt>
<trkpt lat="46.07875044" lon="7.52620012"><ele></ele><time>2024-9-11T7:9:59Z</time></trkpt>
<trkpt lat="46.07902385" lon="7.52612066"><ele></ele><time>2024-9-11T7:10:2Z</time></trkpt>
<trkpt lat="46.07926140" lon="7.52592076"><ele></ele><time>2024-9-11T7:10:5Z</time></trkpt>
<trkpt lat="46.07976297" lon="7.52534559"><ele></ele><time>2024-9-11T7:10:8Z</time></trkpt>
<trkpt lat="46.08006262" lon="7.52465785"><ele></ele><time>2024-9-11T7:10:11Z</time></trkpt>
<trkpt lat="46.08033143" lon="7.52410842"><ele></ele><time>2024-9-11T7:10:14Z</time></trkpt>
<trkpt lat="46.08054592" lon="7.52385831"><ele></ele><time>2024-9-11T7:10:17Z</time></trkpt>
<trkpt lat="46.08073091" lon="7.52348908"><ele></ele><time>2024-9-11T7:10:20Z</time></trkpt>
<trkpt lat="46.08100240" lon="7.52309270"><ele></ele><time>2024-9-11T7:10:23Z</time></trkpt>
<trkpt lat="46.08113140" lon="7.52293495"><ele></ele><time>2024-9-11T7:10:26Z</time></trkpt>
<trkpt lat="46.08156089" lon="7.52263513"><ele></ele><time>2024-9-11T7:10:29Z</time></trkpt>
<trkpt lat="46.08211359" lon="7.52214261"><ele></ele><time>2024-9-11T7:10:32Z</time></trkpt>
<trkpt lat="46.08243462" lon="7.52168538"><ele></ele><time>2024-9-11T7:10:35Z</time></trkpt>
<trkpt lat="46.08262195" lon="7.52161522"><ele></ele><time>2024-9-11T7:10:38Z</time></trkpt>
<trkpt lat="46.08281876" lon="7.52168655"><ele></ele><time>2024-9-11T7:10:41Z</time></trkpt>
<trkpt lat="46.08315672" lon="7.52177850"><ele></ele><time>2024-9-11T7:10:44Z</time></trkpt>
<trkpt lat="46.08342695" lon="7.52171564"><ele></ele><time>2024-9-11T7:10:47Z</time></trkpt>
<trkpt lat="46.08368830" lon="7.52161849"><ele></ele><time>2024-9-11T7:10:50Z</time></trkpt>
<trkpt lat="46.08396725" lon="7.52150710"><ele></ele><time>2024-9-11T7:10:53Z</time></trkpt>
<trkpt lat="46.08423128" lon="7.52129763"><ele></ele><time>2024-9-11T7:10:56Z</time></trkpt>
<trkpt lat="46.08450855" lon="7.52093956"><ele></ele><time>2024-9-11T7:10:59Z</time></trkpt>
<trkpt lat="46.08468566" lon="7.52070512"><ele></ele><time>2024-9-11T7:11:2Z</time></trkpt>
<trkpt lat="46.08497299" lon="7.52043371"><ele></ele><time>2024-9-11T7:11:5Z</time></trkpt>
<trkpt lat="46.08531740" lon="7.52019038"><ele></ele><time>2024-9-11T7:11:8Z</time></trkpt>
<trkpt lat="46.08559862" lon="7.52003716"><ele></ele><time>2024-9-11T7:11:11Z</time></trkpt>
<trkpt lat="46.08606339" lon="7.52019969"><ele></ele><time>2024-9-11T7:11:14Z</time></trkpt>
<trkpt lat="46.08634762" lon="7.52007480"><ele></ele><time>2024-9-11T7:11:17Z</time></trkpt>
<trkpt lat="46.08668357" lon="7.51970943"><ele></ele><time>2024-9-11T7:11:20Z</time></trkpt>
<trkpt lat="46.08701088" lon="7.51923032"><ele></ele><time>2024-9-11T7:11:23Z</time></trkpt>
<trkpt lat="46.08716662" lon="7.51886755"><ele></ele><time>2024-9-11T7:11:26Z</time></trkpt>
<trkpt lat="46.08732345" lon="7.51849565"><ele></ele><time>2024-9-11T7:11:29Z</time></trkpt>
<trkpt lat="46.08747122" lon="7.51831007"><ele></ele><time>2024-9-11T7:11:32Z</time></trkpt>
<trkpt lat="46.08770792" lon="7.51810765"><ele></ele><time>2024-9-11T7:11:35Z</time></trkpt>
<trkpt lat="46.08777640" lon="7.51804730"><ele></ele><time>2024-9-11T7:11:38Z</time></trkpt>
<trkpt lat="46.08762310" lon="7.51820857"><ele></ele><time>2024-9-11T7:11:41Z</time></trkpt>
<trkpt lat="46.08748974" lon="7.51828258"><ele></ele><time>2024-9-11T7:11:44Z</time></trkpt>
<trkpt lat="46.08740877" lon="7.51829859"><ele></ele><time>2024-9-11T7:11:47Z</time></trkpt>
<trkpt lat="46.08734515" lon="7.51820463"><ele></ele><time>2024-9-11T7:11:50Z</time></trkpt>
<trkpt lat="46.08729872" lon="7.51812391"><ele></ele><time>2024-9-11T7:11:53Z</time></trkpt>
<trkpt lat="46.08729537" lon="7.51813472"><ele></ele><time>2024-9-11T7:11:56Z</time></trkpt>
<trkpt lat="46.08722546" lon="7.51809843"><ele></ele><time>2024-9-11T7:11:59Z</time></trkpt>
<trkpt lat="46.08715405" lon="7.51808745"><ele></ele><time>2024-9-11T7:12:2Z</time></trkpt>
<trkpt lat="46.08734935" lon="7.51745797"><ele></ele><time>2024-9-11T7:12:5Z</time></trkpt>
<trkpt lat="46.08745043" lon="7.51722830"><ele></ele><time>2024-9-11T7:12:8Z</time></trkpt>
<trkpt lat="46.08755973" lon="7.51730902"><ele></ele><time>2024-9-11T7:12:11Z</time></trkpt>
<trkpt lat="46.08764229" lon="7.51731807"><ele></ele><time>2024-9-11T7:12:14Z</time></trkpt>
<trkpt lat="46.08777816" lon="7.51728069"><ele></ele><time>2024-9-11T7:12:17Z</time></trkpt>
<trkpt lat="46.08799232" lon="7.51739955"><ele></ele><time>2024-9-11T7:12:20Z</time></trkpt>
<trkpt lat="46.08805250" lon="7.51738152"><ele></ele><time>2024-9-11T7:12:23Z</time></trkpt>
<trkpt lat="46.08814077" lon="7.51729033"><ele></ele><time>2024-9-11T7:12:26Z</time></trkpt>
<trkpt lat="46.08836967" lon="7.51718371"><ele></ele><time>2024-9-11T7:12:29Z</time></trkpt>
<trkpt lat="46.08861350" lon="7.51705949"><ele></ele><time>2024-9-11T7:12:32Z</time></trkpt>
<trkpt lat="46.08952789" lon="7.51684542"><ele></ele><time>2024-9-11T7:12:35Z</time></trkpt>
<trkpt lat="46.08990038" lon="7.51672279"><ele></ele><time>2024-9-11T7:12:38Z</time></trkpt>
<trkpt lat="46.09025225" lon="7.51648592"><ele></ele><time>2024-9-11T7:12:41Z</time></trkpt>
<trkpt lat="46.09061929" lon="7.51617260"><ele></ele><time>2024-9-11T7:12:44Z</time></trkpt>
<trkpt lat="46.09079406" lon="7.51600639"><ele></ele><time>2024-9-11T7:12:47Z</time></trkpt>
<trkpt lat="46.09104132" lon="7.51593472"><ele></ele><time>2024-9-11T7:12:50Z</time></trkpt>
<trkpt lat="46.09137090" lon="7.51582350"><ele></ele><time>2024-9-11T7:12:53Z</time></trkpt>
<trkpt lat="46.09165069" lon="7.51576466"><ele></ele><time>2024-9-11T7:12:56Z</time></trkpt>
<trkpt lat="46.09185730" lon="7.51575435"><ele></ele><time>2024-9-11T7:12:59Z</time></trkpt>
<trkpt lat="46.09220054" lon="7.51561403"><ele></ele><time>2024-9-11T7:13:2Z</time></trkpt>
<trkpt lat="46.09232727" lon="7.51563608"><ele></ele><time>2024-9-11T7:13:5Z</time></trkpt>
<trkpt lat="46.09253691" lon="7.51577480"><ele></ele><time>2024-9-11T7:13:8Z</time></trkpt>
<trkpt lat="46.09260036" lon="7.51582794"><ele></ele><time>2024-9-11T7:13:11Z</time></trkpt>
<trkpt lat="46.09287118" lon="7.51598284"><ele></ele><time>2024-9-11T7:13:14Z</time></trkpt>
<trkpt lat="46.09310185" lon="7.51595543"><ele></ele><time>2024-9-11T7:13:17Z</time></trkpt>
<trkpt lat="46.09327150" lon="7.51559626"><ele></ele><time>2024-9-11T7:13:20Z</time></trkpt>
<trkpt lat="46.09344014" lon="7.51557179"><ele></ele><time>2024-9-11T7:13:23Z</time></trkpt>
<trkpt lat="46.09381875" lon="7.51556089"><ele></ele><time>2024-9-11T7:13:26Z</time></trkpt>
<trkpt lat="46.09423156" lon="7.51559375"><ele></ele><time>2024-9-11T7:13:29Z</time></trkpt>
<trkpt lat="46.09430457" lon="7.51560775"><ele></ele><time>2024-9-11T7:13:32Z</time></trkpt>
<trkpt lat="46.09481678" lon="7.51582333"><ele></ele><time>2024-9-11T7:13:35Z</time></trkpt>
<trkpt lat="46.09549907" lon="7.51616397"><ele></ele><time>2024-9-11T7:13:38Z</time></trkpt>
<trkpt lat="46.09596997" lon="7.51622331"><ele></ele><time>2024-9-11T7:13:41Z</time></trkpt>
<trkpt lat="46.09620784" lon="7.51609473"><ele></ele><time>2024-9-11T7:13:44Z</time></trkpt>
<trkpt lat="46.09620240" lon="7.51605392"><ele></ele><time>2024-9-11T7:13:47Z</time></trkpt>
<trkpt lat="46.09610014" lon="7.51598443"><ele></ele><time>2024-9-11T7:13:50Z</time></trkpt>
<trkpt lat="46.09573670" lon="7.51593917"><ele></ele><time>2024-9-11T7:13:53Z</time></trkpt>
<trkpt lat="46.09546538" lon="7.51580589"><ele></ele><time>2024-9-11T7:13:56Z</time></trkpt>
<trkpt lat="46.09489859" lon="7.51530851"><ele></ele><time>2024-9-11T7:13:59Z</time></trkpt>
<trkpt lat="46.09453239" lon="7.51462748"><ele></ele><time>2024-9-11T7:14:2Z</time></trkpt>
<trkpt lat="46.09431127" lon="7.51405290"><ele></ele><time>2024-9-11T7:14:5Z</time></trkpt>
<trkpt lat="46.09423349" lon="7.51387931"><ele></ele><time>2024-9-11T7:14:8Z</time></trkpt>
<trkpt lat="46.09417339" lon="7.51375141"><ele></ele><time>2024-9-11T7:14:11Z</time></trkpt>
<trkpt lat="46.09403182" lon="7.51362819"><ele></ele><time>2024-9-11T7:14:14Z</time></trkpt>
<trkpt lat="46.09367257" lon="7.51354312"><ele></ele><time>2024-9-11T7:14:17Z</time></trkpt>
<trkpt lat="46.09340846" lon="7.51344186"><ele></ele><time>2024-9-11T7:14:20Z</time></trkpt>
<trkpt lat="46.09322716" lon="7.51341571"><ele></ele><time>2024-9-11T7:14:23Z</time></trkpt>
<trkpt lat="46.09303823" lon="7.51352568"><ele></ele><time>2024-9-11T7:14:26Z</time></trkpt>
<trkpt lat="46.09296137" lon="7.51358712"><ele></ele><time>2024-9-11T7:14:29Z</time></trkpt>
<trkpt lat="46.09260170" lon="7.51368360"><ele></ele><time>2024-9-11T7:14:32Z</time></trkpt>
<trkpt lat="46.09229811" lon="7.51364898"><ele></ele><time>2024-9-11T7:14:35Z</time></trkpt>
<trkpt lat="46.09117988" lon="7.51320851"><ele></ele><time>2024-9-11T7:14:38Z</time></trkpt>
<trkpt lat="46.09068065" lon="7.51314213"><ele></ele><time>2024-9-11T7:14:41Z</time></trkpt>
<trkpt lat="46.09016701" lon="7.51311472"><ele></ele><time>2024-9-11T7:14:44Z</time></trkpt>
<trkpt lat="46.08977440" lon="7.51301330"><ele></ele><time>2024-9-11T7:14:47Z</time></trkpt>
<trkpt lat="46.08912966" lon="7.51290768"><ele></ele><time>2024-9-11T7:14:50Z</time></trkpt>
<trkpt lat="46.08868400" lon="7.51281037"><ele></ele><time>2024-9-11T7:14:53Z</time></trkpt>
<trkpt lat="46.08762570" lon="7.51241994"><ele></ele><time>2024-9-11T7:14:56Z</time></trkpt>
<trkpt lat="46.08743065" lon="7.51244542"><ele></ele><time>2024-9-11T7:14:59Z</time></trkpt>
<trkpt lat="46.08700711" lon="7.51227519"><ele></ele><time>2024-9-11T7:15:2Z</time></trkpt>
<trkpt lat="46.08640890" lon="7.51206723"><ele></ele><time>2024-9-11T7:15:5Z</time></trkpt>
<trkpt lat="46.08568981" lon="7.51164495"><ele></ele><time>2024-9-11T7:15:8Z</time></trkpt>
<trkpt lat="46.08525764" lon="7.51143674"><ele></ele><time>2024-9-11T7:15:11Z</time></trkpt>
<trkpt lat="46.08447553" lon="7.51089594"><ele></ele><time>2024-9-11T7:15:14Z</time></trkpt>
<trkpt lat="46.08405392" lon="7.51044818"><ele></ele><time>2024-9-11T7:15:17Z</time></trkpt>
<trkpt lat="46.08388921" lon="7.51031734"><ele></ele><time>2024-9-11T7:15:20Z</time></trkpt>
<trkpt lat="46.08379517" lon="7.51028306"><ele></ele><time>2024-9-11T7:15:23Z</time></trkpt>
<trkpt lat="46.08361714" lon="7.51024869"><ele></ele><time>2024-9-11T7:15:26Z</time></trkpt>
<trkpt lat="46.08319653" lon="7.51005909"><ele></ele><time>2024-9-11T7:15:29Z</time></trkpt>
<trkpt lat="46.08294541" lon="7.50997804"><ele></ele><time>2024-9-11T7:15:32Z</time></trkpt>
<trkpt lat="46.08276143" lon="7.50994108"><ele></ele><time>2024-9-11T7:15:35Z</time></trkpt>
<trkpt lat="46.08252221" lon="7.50993521"><ele></ele><time>2024-9-11T7:15:38Z</time></trkpt>
<trkpt lat="46.08233470" lon="7.50980278"><ele></ele><time>2024-9-11T7:15:41Z</time></trkpt>
<trkpt lat="46.08240872" lon="7.50975123"><ele></ele><time>2024-9-11T7:15:44Z</time></trkpt>
<trkpt lat="46.08305044" lon="7.50952944"><ele></ele><time>2024-9-11T7:15:47Z</time></trkpt>
<trkpt lat="46.08368126" lon="7.50923465"><ele></ele><time>2024-9-11T7:15:50Z</time></trkpt>
<trkpt lat="46.08371411" lon="7.50921529"><ele></ele><time>2024-9-11T7:15:53Z</time></trkpt>
<trkpt lat="46.08391746" lon="7.50911848"><ele></ele><time>2024-9-11T7:15:56Z</time></trkpt>
<trkpt lat="46.08398686" lon="7.50907196"><ele></ele><time>2024-9-11T7:15:59Z</time></trkpt>
<trkpt lat="46.08411041" lon="7.50895872"><ele></ele><time>2024-9-11T7:16:2Z</time></trkpt>
</trkseg></trk></gpx>